<?xml version="1.0" encoding="UTF-8" standalone="no" ?>
<gpx xmlns="http://www.topografix.com/GPX/1/1" xmlns:xsi="http://www.w3.org/2001/XMLSchema-instance" xsi:schemaLocation="http://www.topografix.com/GPX/1/1 http://www.topografix.com/GPX/1/1/gpx.xsd" version="1.1" creator="VisuGPX - https://www.visugpx.com">
  <metadata>
    <name>Vacances 2021</name>
  </metadata>
  <trk>
    <name><![CDATA[Journal actif: 2021-07-21 10:49]]></name>
    <trkseg>
      <trkpt lat="49.04923" lon="7.78021">
        <ele>345.73</ele>
        <time>2021-07-21T12:49:25Z</time>
      </trkpt>
      <trkpt lat="49.04922" lon="7.78018">
        <ele>343.81</ele>
        <time>2021-07-21T12:49:55Z</time>
      </trkpt>
      <trkpt lat="49.04921" lon="7.78015">
        <ele>340.92</ele>
        <time>2021-07-21T12:50:19Z</time>
      </trkpt>
      <trkpt lat="49.0492" lon="7.78012">
        <ele>339</ele>
        <time>2021-07-21T12:50:56Z</time>
      </trkpt>
      <trkpt lat="49.04921" lon="7.78019">
        <ele>338.04</ele>
        <time>2021-07-21T12:51:21Z</time>
      </trkpt>
      <trkpt lat="49.04914" lon="7.78014">
        <ele>336.6</ele>
        <time>2021-07-21T12:51:44Z</time>
      </trkpt>
      <trkpt lat="49.04902" lon="7.77992">
        <ele>334.2</ele>
        <time>2021-07-21T12:51:57Z</time>
      </trkpt>
      <trkpt lat="49.0488" lon="7.77997">
        <ele>325.54</ele>
        <time>2021-07-21T12:52:12Z</time>
      </trkpt>
      <trkpt lat="49.04873" lon="7.77997">
        <ele>324.58</ele>
        <time>2021-07-21T12:52:14Z</time>
      </trkpt>
      <trkpt lat="49.04868" lon="7.77997">
        <ele>323.62</ele>
        <time>2021-07-21T12:52:15Z</time>
      </trkpt>
      <trkpt lat="49.04865" lon="7.77995">
        <ele>323.14</ele>
        <time>2021-07-21T12:52:16Z</time>
      </trkpt>
      <trkpt lat="49.04819" lon="7.77954">
        <ele>313.53</ele>
        <time>2021-07-21T12:52:28Z</time>
      </trkpt>
      <trkpt lat="49.04757" lon="7.77899">
        <ele>303.91</ele>
        <time>2021-07-21T12:52:40Z</time>
      </trkpt>
      <trkpt lat="49.04665" lon="7.77802">
        <ele>296.7</ele>
        <time>2021-07-21T12:52:55Z</time>
      </trkpt>
      <trkpt lat="49.04576" lon="7.77682">
        <ele>293.34</ele>
        <time>2021-07-21T12:53:07Z</time>
      </trkpt>
      <trkpt lat="49.04472" lon="7.77562">
        <ele>287.57</ele>
        <time>2021-07-21T12:53:19Z</time>
      </trkpt>
      <trkpt lat="49.04352" lon="7.77511">
        <ele>283.73</ele>
        <time>2021-07-21T12:53:30Z</time>
      </trkpt>
      <trkpt lat="49.04233" lon="7.7746">
        <ele>274.59</ele>
        <time>2021-07-21T12:53:40Z</time>
      </trkpt>
      <trkpt lat="49.0411" lon="7.77342">
        <ele>254.89</ele>
        <time>2021-07-21T12:53:51Z</time>
      </trkpt>
      <trkpt lat="49.04004" lon="7.77224">
        <ele>238.54</ele>
        <time>2021-07-21T12:54:00Z</time>
      </trkpt>
      <trkpt lat="49.03954" lon="7.77157">
        <ele>231.81</ele>
        <time>2021-07-21T12:54:05Z</time>
      </trkpt>
      <trkpt lat="49.03943" lon="7.77146">
        <ele>230.37</ele>
        <time>2021-07-21T12:54:06Z</time>
      </trkpt>
      <trkpt lat="49.03917" lon="7.7712">
        <ele>226.05</ele>
        <time>2021-07-21T12:54:09Z</time>
      </trkpt>
      <trkpt lat="49.03907" lon="7.77111">
        <ele>224.61</ele>
        <time>2021-07-21T12:54:10Z</time>
      </trkpt>
      <trkpt lat="49.03897" lon="7.77102">
        <ele>225.57</ele>
        <time>2021-07-21T12:54:11Z</time>
      </trkpt>
      <trkpt lat="49.03888" lon="7.77092">
        <ele>224.61</ele>
        <time>2021-07-21T12:54:12Z</time>
      </trkpt>
      <trkpt lat="49.03879" lon="7.77076">
        <ele>223.64</ele>
        <time>2021-07-21T12:54:13Z</time>
      </trkpt>
      <trkpt lat="49.03873" lon="7.7706">
        <ele>222.68</ele>
        <time>2021-07-21T12:54:14Z</time>
      </trkpt>
      <trkpt lat="49.03866" lon="7.77023">
        <ele>221.72</ele>
        <time>2021-07-21T12:54:15Z</time>
      </trkpt>
      <trkpt lat="49.03836" lon="7.76909">
        <ele>211.15</ele>
        <time>2021-07-21T12:54:24Z</time>
      </trkpt>
      <trkpt lat="49.03818" lon="7.76879">
        <ele>208.74</ele>
        <time>2021-07-21T12:54:27Z</time>
      </trkpt>
      <trkpt lat="49.03793" lon="7.76771">
        <ele>200.09</ele>
        <time>2021-07-21T12:54:36Z</time>
      </trkpt>
      <trkpt lat="49.03781" lon="7.76738">
        <ele>203.46</ele>
        <time>2021-07-21T12:54:43Z</time>
      </trkpt>
      <trkpt lat="49.03781" lon="7.76738">
        <ele>204.42</ele>
        <time>2021-07-21T12:54:46Z</time>
      </trkpt>
      <trkpt lat="49.03773" lon="7.76729">
        <ele>204.42</ele>
        <time>2021-07-21T12:54:47Z</time>
      </trkpt>
      <trkpt lat="49.03773" lon="7.76729">
        <ele>204.42</ele>
        <time>2021-07-21T12:54:48Z</time>
      </trkpt>
      <trkpt lat="49.03763" lon="7.76734">
        <ele>204.42</ele>
        <time>2021-07-21T12:54:50Z</time>
      </trkpt>
      <trkpt lat="49.03698" lon="7.76762">
        <ele>201.05</ele>
        <time>2021-07-21T12:54:58Z</time>
      </trkpt>
      <trkpt lat="49.036" lon="7.76822">
        <ele>195.77</ele>
        <time>2021-07-21T12:55:07Z</time>
      </trkpt>
      <trkpt lat="49.03442" lon="7.76906">
        <ele>197.21</ele>
        <time>2021-07-21T12:55:20Z</time>
      </trkpt>
      <trkpt lat="49.03284" lon="7.76968">
        <ele>202.01</ele>
        <time>2021-07-21T12:55:34Z</time>
      </trkpt>
      <trkpt lat="49.03223" lon="7.76966">
        <ele>203.94</ele>
        <time>2021-07-21T12:55:40Z</time>
      </trkpt>
      <trkpt lat="49.03124" lon="7.76919">
        <ele>207.3</ele>
        <time>2021-07-21T12:55:51Z</time>
      </trkpt>
      <trkpt lat="49.03076" lon="7.76901">
        <ele>206.34</ele>
        <time>2021-07-21T12:55:57Z</time>
      </trkpt>
      <trkpt lat="49.03066" lon="7.76902">
        <ele>206.82</ele>
        <time>2021-07-21T12:55:58Z</time>
      </trkpt>
      <trkpt lat="49.03066" lon="7.76902">
        <ele>206.34</ele>
        <time>2021-07-21T12:55:59Z</time>
      </trkpt>
      <trkpt lat="49.02935" lon="7.76922">
        <ele>200.57</ele>
        <time>2021-07-21T12:56:09Z</time>
      </trkpt>
      <trkpt lat="49.02797" lon="7.76985">
        <ele>195.77</ele>
        <time>2021-07-21T12:56:18Z</time>
      </trkpt>
      <trkpt lat="49.02741" lon="7.77046">
        <ele>193.36</ele>
        <time>2021-07-21T12:56:24Z</time>
      </trkpt>
      <trkpt lat="49.0273" lon="7.77058">
        <ele>192.88</ele>
        <time>2021-07-21T12:56:25Z</time>
      </trkpt>
      <trkpt lat="49.02718" lon="7.77065">
        <ele>192.88</ele>
        <time>2021-07-21T12:56:26Z</time>
      </trkpt>
      <trkpt lat="49.0263" lon="7.77089">
        <ele>194.8</ele>
        <time>2021-07-21T12:56:34Z</time>
      </trkpt>
      <trkpt lat="49.02601" lon="7.77083">
        <ele>195.28</ele>
        <time>2021-07-21T12:56:41Z</time>
      </trkpt>
      <trkpt lat="49.0259" lon="7.77078">
        <ele>195.28</ele>
        <time>2021-07-21T12:56:46Z</time>
      </trkpt>
      <trkpt lat="49.0259" lon="7.77078">
        <ele>195.28</ele>
        <time>2021-07-21T12:56:47Z</time>
      </trkpt>
      <trkpt lat="49.02579" lon="7.77075">
        <ele>194.8</ele>
        <time>2021-07-21T12:56:49Z</time>
      </trkpt>
      <trkpt lat="49.02563" lon="7.77075">
        <ele>194.8</ele>
        <time>2021-07-21T12:56:50Z</time>
      </trkpt>
      <trkpt lat="49.02474" lon="7.7705">
        <ele>194.32</ele>
        <time>2021-07-21T12:56:58Z</time>
      </trkpt>
      <trkpt lat="49.02388" lon="7.77009">
        <ele>195.28</ele>
        <time>2021-07-21T12:57:06Z</time>
      </trkpt>
      <trkpt lat="49.02377" lon="7.77007">
        <ele>195.28</ele>
        <time>2021-07-21T12:57:07Z</time>
      </trkpt>
      <trkpt lat="49.02364" lon="7.77005">
        <ele>195.77</ele>
        <time>2021-07-21T12:57:08Z</time>
      </trkpt>
      <trkpt lat="49.02341" lon="7.77012">
        <ele>195.28</ele>
        <time>2021-07-21T12:57:09Z</time>
      </trkpt>
      <trkpt lat="49.02341" lon="7.77012">
        <ele>193.84</ele>
        <time>2021-07-21T12:57:10Z</time>
      </trkpt>
      <trkpt lat="49.02329" lon="7.77018">
        <ele>193.36</ele>
        <time>2021-07-21T12:57:11Z</time>
      </trkpt>
      <trkpt lat="49.02316" lon="7.77024">
        <ele>192.88</ele>
        <time>2021-07-21T12:57:12Z</time>
      </trkpt>
      <trkpt lat="49.02294" lon="7.77044">
        <ele>191.92</ele>
        <time>2021-07-21T12:57:13Z</time>
      </trkpt>
      <trkpt lat="49.02294" lon="7.77044">
        <ele>191.92</ele>
        <time>2021-07-21T12:57:14Z</time>
      </trkpt>
      <trkpt lat="49.02283" lon="7.77055">
        <ele>191.92</ele>
        <time>2021-07-21T12:57:15Z</time>
      </trkpt>
      <trkpt lat="49.02273" lon="7.77069">
        <ele>191.44</ele>
        <time>2021-07-21T12:57:16Z</time>
      </trkpt>
      <trkpt lat="49.02264" lon="7.77085">
        <ele>191.44</ele>
        <time>2021-07-21T12:57:17Z</time>
      </trkpt>
      <trkpt lat="49.0216" lon="7.77262">
        <ele>192.88</ele>
        <time>2021-07-21T12:57:28Z</time>
      </trkpt>
      <trkpt lat="49.0205" lon="7.77421">
        <ele>195.28</ele>
        <time>2021-07-21T12:57:38Z</time>
      </trkpt>
      <trkpt lat="49.02041" lon="7.7744">
        <ele>195.28</ele>
        <time>2021-07-21T12:57:39Z</time>
      </trkpt>
      <trkpt lat="49.01974" lon="7.77691">
        <ele>198.17</ele>
        <time>2021-07-21T12:57:49Z</time>
      </trkpt>
      <trkpt lat="49.01923" lon="7.77807">
        <ele>200.57</ele>
        <time>2021-07-21T12:57:56Z</time>
      </trkpt>
      <trkpt lat="49.01914" lon="7.77821">
        <ele>200.57</ele>
        <time>2021-07-21T12:57:57Z</time>
      </trkpt>
      <trkpt lat="49.01902" lon="7.77832">
        <ele>200.09</ele>
        <time>2021-07-21T12:57:58Z</time>
      </trkpt>
      <trkpt lat="49.01879" lon="7.77856">
        <ele>199.61</ele>
        <time>2021-07-21T12:57:59Z</time>
      </trkpt>
      <trkpt lat="49.01867" lon="7.77867">
        <ele>199.61</ele>
        <time>2021-07-21T12:58:00Z</time>
      </trkpt>
      <trkpt lat="49.01842" lon="7.7788">
        <ele>199.61</ele>
        <time>2021-07-21T12:58:02Z</time>
      </trkpt>
      <trkpt lat="49.01842" lon="7.7788">
        <ele>200.09</ele>
        <time>2021-07-21T12:58:03Z</time>
      </trkpt>
      <trkpt lat="49.01829" lon="7.77882">
        <ele>201.05</ele>
        <time>2021-07-21T12:58:04Z</time>
      </trkpt>
      <trkpt lat="49.01815" lon="7.77882">
        <ele>201.53</ele>
        <time>2021-07-21T12:58:05Z</time>
      </trkpt>
      <trkpt lat="49.01801" lon="7.77883">
        <ele>201.53</ele>
        <time>2021-07-21T12:58:06Z</time>
      </trkpt>
      <trkpt lat="49.01737" lon="7.77884">
        <ele>202.49</ele>
        <time>2021-07-21T12:58:10Z</time>
      </trkpt>
      <trkpt lat="49.01737" lon="7.77884">
        <ele>202.49</ele>
        <time>2021-07-21T12:58:11Z</time>
      </trkpt>
      <trkpt lat="49.01725" lon="7.77889">
        <ele>202.49</ele>
        <time>2021-07-21T12:58:12Z</time>
      </trkpt>
      <trkpt lat="49.01707" lon="7.77915">
        <ele>202.01</ele>
        <time>2021-07-21T12:58:13Z</time>
      </trkpt>
      <trkpt lat="49.017" lon="7.7793">
        <ele>201.53</ele>
        <time>2021-07-21T12:58:14Z</time>
      </trkpt>
      <trkpt lat="49.017" lon="7.7793">
        <ele>201.05</ele>
        <time>2021-07-21T12:58:15Z</time>
      </trkpt>
      <trkpt lat="49.01688" lon="7.77965">
        <ele>200.57</ele>
        <time>2021-07-21T12:58:16Z</time>
      </trkpt>
      <trkpt lat="49.01688" lon="7.77965">
        <ele>200.57</ele>
        <time>2021-07-21T12:58:17Z</time>
      </trkpt>
      <trkpt lat="49.01641" lon="7.78127">
        <ele>198.17</ele>
        <time>2021-07-21T12:58:25Z</time>
      </trkpt>
      <trkpt lat="49.01631" lon="7.78142">
        <ele>197.69</ele>
        <time>2021-07-21T12:58:26Z</time>
      </trkpt>
      <trkpt lat="49.01631" lon="7.78142">
        <ele>197.21</ele>
        <time>2021-07-21T12:58:27Z</time>
      </trkpt>
      <trkpt lat="49.01621" lon="7.78156">
        <ele>197.21</ele>
        <time>2021-07-21T12:58:28Z</time>
      </trkpt>
      <trkpt lat="49.01611" lon="7.78169">
        <ele>197.21</ele>
        <time>2021-07-21T12:58:29Z</time>
      </trkpt>
      <trkpt lat="49.016" lon="7.78179">
        <ele>197.21</ele>
        <time>2021-07-21T12:58:30Z</time>
      </trkpt>
      <trkpt lat="49.01588" lon="7.78185">
        <ele>197.69</ele>
        <time>2021-07-21T12:58:31Z</time>
      </trkpt>
      <trkpt lat="49.01575" lon="7.78191">
        <ele>197.69</ele>
        <time>2021-07-21T12:58:32Z</time>
      </trkpt>
      <trkpt lat="49.01564" lon="7.7819">
        <ele>197.69</ele>
        <time>2021-07-21T12:58:33Z</time>
      </trkpt>
      <trkpt lat="49.01551" lon="7.78185">
        <ele>197.69</ele>
        <time>2021-07-21T12:58:34Z</time>
      </trkpt>
      <trkpt lat="49.01538" lon="7.7818">
        <ele>197.69</ele>
        <time>2021-07-21T12:58:35Z</time>
      </trkpt>
      <trkpt lat="49.01526" lon="7.7817">
        <ele>197.69</ele>
        <time>2021-07-21T12:58:36Z</time>
      </trkpt>
      <trkpt lat="49.01515" lon="7.78156">
        <ele>197.21</ele>
        <time>2021-07-21T12:58:37Z</time>
      </trkpt>
      <trkpt lat="49.01503" lon="7.78143">
        <ele>197.21</ele>
        <time>2021-07-21T12:58:38Z</time>
      </trkpt>
      <trkpt lat="49.01494" lon="7.78126">
        <ele>196.73</ele>
        <time>2021-07-21T12:58:39Z</time>
      </trkpt>
      <trkpt lat="49.01486" lon="7.78108">
        <ele>196.25</ele>
        <time>2021-07-21T12:58:40Z</time>
      </trkpt>
      <trkpt lat="49.0148" lon="7.78088">
        <ele>196.25</ele>
        <time>2021-07-21T12:58:41Z</time>
      </trkpt>
      <trkpt lat="49.01475" lon="7.78068">
        <ele>195.77</ele>
        <time>2021-07-21T12:58:42Z</time>
      </trkpt>
      <trkpt lat="49.0147" lon="7.78046">
        <ele>195.77</ele>
        <time>2021-07-21T12:58:43Z</time>
      </trkpt>
      <trkpt lat="49.01448" lon="7.7795">
        <ele>195.28</ele>
        <time>2021-07-21T12:58:47Z</time>
      </trkpt>
      <trkpt lat="49.01448" lon="7.7795">
        <ele>195.28</ele>
        <time>2021-07-21T12:58:48Z</time>
      </trkpt>
      <trkpt lat="49.01438" lon="7.77942">
        <ele>194.32</ele>
        <time>2021-07-21T12:58:49Z</time>
      </trkpt>
      <trkpt lat="49.01432" lon="7.77937">
        <ele>193.36</ele>
        <time>2021-07-21T12:58:50Z</time>
      </trkpt>
      <trkpt lat="49.0142" lon="7.77937">
        <ele>193.36</ele>
        <time>2021-07-21T12:58:51Z</time>
      </trkpt>
      <trkpt lat="49.01415" lon="7.77937">
        <ele>193.36</ele>
        <time>2021-07-21T12:58:52Z</time>
      </trkpt>
      <trkpt lat="49.01406" lon="7.77943">
        <ele>192.4</ele>
        <time>2021-07-21T12:58:53Z</time>
      </trkpt>
      <trkpt lat="49.014" lon="7.77946">
        <ele>191.92</ele>
        <time>2021-07-21T12:58:54Z</time>
      </trkpt>
      <trkpt lat="49.01389" lon="7.77969">
        <ele>191.92</ele>
        <time>2021-07-21T12:58:55Z</time>
      </trkpt>
      <trkpt lat="49.01389" lon="7.77969">
        <ele>191.92</ele>
        <time>2021-07-21T12:58:56Z</time>
      </trkpt>
      <trkpt lat="49.01385" lon="7.77988">
        <ele>191.92</ele>
        <time>2021-07-21T12:58:57Z</time>
      </trkpt>
      <trkpt lat="49.01381" lon="7.78008">
        <ele>191.44</ele>
        <time>2021-07-21T12:58:58Z</time>
      </trkpt>
      <trkpt lat="49.01356" lon="7.78259">
        <ele>185.67</ele>
        <time>2021-07-21T12:59:10Z</time>
      </trkpt>
      <trkpt lat="49.01354" lon="7.78278">
        <ele>186.63</ele>
        <time>2021-07-21T12:59:11Z</time>
      </trkpt>
      <trkpt lat="49.01351" lon="7.78296">
        <ele>186.15</ele>
        <time>2021-07-21T12:59:12Z</time>
      </trkpt>
      <trkpt lat="49.01346" lon="7.78318">
        <ele>186.63</ele>
        <time>2021-07-21T12:59:13Z</time>
      </trkpt>
      <trkpt lat="49.01343" lon="7.78337">
        <ele>187.11</ele>
        <time>2021-07-21T12:59:14Z</time>
      </trkpt>
      <trkpt lat="49.01339" lon="7.78352">
        <ele>187.59</ele>
        <time>2021-07-21T12:59:15Z</time>
      </trkpt>
      <trkpt lat="49.01331" lon="7.78368">
        <ele>188.08</ele>
        <time>2021-07-21T12:59:16Z</time>
      </trkpt>
      <trkpt lat="49.01323" lon="7.78383">
        <ele>189.04</ele>
        <time>2021-07-21T12:59:17Z</time>
      </trkpt>
      <trkpt lat="49.01315" lon="7.78398">
        <ele>189.04</ele>
        <time>2021-07-21T12:59:18Z</time>
      </trkpt>
      <trkpt lat="49.01203" lon="7.78551">
        <ele>190.48</ele>
        <time>2021-07-21T12:59:28Z</time>
      </trkpt>
      <trkpt lat="49.01122" lon="7.78664">
        <ele>191.92</ele>
        <time>2021-07-21T12:59:36Z</time>
      </trkpt>
      <trkpt lat="49.01053" lon="7.78744">
        <ele>196.25</ele>
        <time>2021-07-21T12:59:44Z</time>
      </trkpt>
      <trkpt lat="49.01046" lon="7.78756">
        <ele>196.25</ele>
        <time>2021-07-21T12:59:45Z</time>
      </trkpt>
      <trkpt lat="49.01038" lon="7.78767">
        <ele>196.73</ele>
        <time>2021-07-21T12:59:46Z</time>
      </trkpt>
      <trkpt lat="49.01005" lon="7.7883">
        <ele>198.17</ele>
        <time>2021-07-21T12:59:52Z</time>
      </trkpt>
      <trkpt lat="49.00999" lon="7.78837">
        <ele>198.17</ele>
        <time>2021-07-21T12:59:53Z</time>
      </trkpt>
      <trkpt lat="49.00994" lon="7.78843">
        <ele>198.17</ele>
        <time>2021-07-21T12:59:54Z</time>
      </trkpt>
      <trkpt lat="49.00988" lon="7.78849">
        <ele>197.69</ele>
        <time>2021-07-21T12:59:55Z</time>
      </trkpt>
      <trkpt lat="49.00982" lon="7.78852">
        <ele>197.69</ele>
        <time>2021-07-21T12:59:56Z</time>
      </trkpt>
      <trkpt lat="49.00974" lon="7.78855">
        <ele>197.69</ele>
        <time>2021-07-21T12:59:57Z</time>
      </trkpt>
      <trkpt lat="49.00966" lon="7.78859">
        <ele>197.69</ele>
        <time>2021-07-21T12:59:58Z</time>
      </trkpt>
      <trkpt lat="49.00824" lon="7.78906">
        <ele>198.17</ele>
        <time>2021-07-21T13:00:17Z</time>
      </trkpt>
      <trkpt lat="49.00713" lon="7.78941">
        <ele>202.01</ele>
        <time>2021-07-21T13:00:30Z</time>
      </trkpt>
      <trkpt lat="49.00626" lon="7.78968">
        <ele>205.38</ele>
        <time>2021-07-21T13:00:42Z</time>
      </trkpt>
      <trkpt lat="49.00513" lon="7.79005">
        <ele>205.38</ele>
        <time>2021-07-21T13:00:59Z</time>
      </trkpt>
      <trkpt lat="49.00484" lon="7.79011">
        <ele>203.94</ele>
        <time>2021-07-21T13:01:05Z</time>
      </trkpt>
      <trkpt lat="49.00474" lon="7.79013">
        <ele>202.49</ele>
        <time>2021-07-21T13:01:12Z</time>
      </trkpt>
      <trkpt lat="49.0047" lon="7.79014">
        <ele>202.01</ele>
        <time>2021-07-21T13:01:13Z</time>
      </trkpt>
      <trkpt lat="49.00466" lon="7.79015">
        <ele>201.05</ele>
        <time>2021-07-21T13:01:14Z</time>
      </trkpt>
      <trkpt lat="49.00461" lon="7.79016">
        <ele>200.57</ele>
        <time>2021-07-21T13:01:15Z</time>
      </trkpt>
      <trkpt lat="49.00457" lon="7.79016">
        <ele>199.61</ele>
        <time>2021-07-21T13:01:16Z</time>
      </trkpt>
      <trkpt lat="49.00397" lon="7.79004">
        <ele>193.84</ele>
        <time>2021-07-21T13:01:28Z</time>
      </trkpt>
      <trkpt lat="49.00386" lon="7.79001">
        <ele>194.8</ele>
        <time>2021-07-21T13:01:38Z</time>
      </trkpt>
      <trkpt lat="49.00386" lon="7.79001">
        <ele>194.32</ele>
        <time>2021-07-21T13:07:56Z</time>
      </trkpt>
      <trkpt lat="49.00386" lon="7.79001">
        <ele>194.32</ele>
        <time>2021-07-21T13:08:55Z</time>
      </trkpt>
      <trkpt lat="49.00366" lon="7.78987">
        <ele>193.84</ele>
        <time>2021-07-21T13:09:06Z</time>
      </trkpt>
      <trkpt lat="49.00361" lon="7.78991">
        <ele>192.88</ele>
        <time>2021-07-21T13:09:08Z</time>
      </trkpt>
      <trkpt lat="49.00355" lon="7.78995">
        <ele>192.88</ele>
        <time>2021-07-21T13:09:09Z</time>
      </trkpt>
      <trkpt lat="49.00356" lon="7.78996">
        <ele>192.4</ele>
        <time>2021-07-21T13:09:10Z</time>
      </trkpt>
      <trkpt lat="49.00356" lon="7.78996">
        <ele>192.4</ele>
        <time>2021-07-21T13:09:11Z</time>
      </trkpt>
      <trkpt lat="49.00358" lon="7.79005">
        <ele>191.92</ele>
        <time>2021-07-21T13:09:12Z</time>
      </trkpt>
      <trkpt lat="49.00358" lon="7.79005">
        <ele>191.44</ele>
        <time>2021-07-21T13:09:13Z</time>
      </trkpt>
      <trkpt lat="49.00363" lon="7.79008">
        <ele>191.44</ele>
        <time>2021-07-21T13:09:14Z</time>
      </trkpt>
      <trkpt lat="49.00363" lon="7.79008">
        <ele>190.96</ele>
        <time>2021-07-21T13:09:15Z</time>
      </trkpt>
      <trkpt lat="49.00366" lon="7.79008">
        <ele>190.96</ele>
        <time>2021-07-21T13:09:16Z</time>
      </trkpt>
      <trkpt lat="49.00374" lon="7.78998">
        <ele>191.44</ele>
        <time>2021-07-21T13:09:18Z</time>
      </trkpt>
      <trkpt lat="49.00379" lon="7.78999">
        <ele>191.92</ele>
        <time>2021-07-21T13:09:19Z</time>
      </trkpt>
      <trkpt lat="49.0046" lon="7.79016">
        <ele>191.44</ele>
        <time>2021-07-21T13:09:32Z</time>
      </trkpt>
      <trkpt lat="49.00466" lon="7.79015">
        <ele>191.44</ele>
        <time>2021-07-21T13:09:33Z</time>
      </trkpt>
      <trkpt lat="49.00472" lon="7.79014">
        <ele>191.44</ele>
        <time>2021-07-21T13:09:34Z</time>
      </trkpt>
      <trkpt lat="49.00483" lon="7.79011">
        <ele>191.92</ele>
        <time>2021-07-21T13:09:36Z</time>
      </trkpt>
      <trkpt lat="49.00561" lon="7.78989">
        <ele>199.13</ele>
        <time>2021-07-21T13:09:48Z</time>
      </trkpt>
      <trkpt lat="49.00689" lon="7.78948">
        <ele>199.13</ele>
        <time>2021-07-21T13:10:03Z</time>
      </trkpt>
      <trkpt lat="49.00824" lon="7.78906">
        <ele>197.69</ele>
        <time>2021-07-21T13:10:17Z</time>
      </trkpt>
      <trkpt lat="49.00936" lon="7.78871">
        <ele>202.01</ele>
        <time>2021-07-21T13:10:31Z</time>
      </trkpt>
      <trkpt lat="49.00982" lon="7.78852">
        <ele>203.94</ele>
        <time>2021-07-21T13:10:38Z</time>
      </trkpt>
      <trkpt lat="49.00989" lon="7.78848">
        <ele>203.94</ele>
        <time>2021-07-21T13:10:39Z</time>
      </trkpt>
      <trkpt lat="49.00996" lon="7.78841">
        <ele>204.42</ele>
        <time>2021-07-21T13:10:40Z</time>
      </trkpt>
      <trkpt lat="49.01003" lon="7.78833">
        <ele>204.42</ele>
        <time>2021-07-21T13:10:41Z</time>
      </trkpt>
      <trkpt lat="49.01009" lon="7.78825">
        <ele>204.9</ele>
        <time>2021-07-21T13:10:42Z</time>
      </trkpt>
      <trkpt lat="49.01045" lon="7.78757">
        <ele>204.42</ele>
        <time>2021-07-21T13:10:48Z</time>
      </trkpt>
      <trkpt lat="49.0106" lon="7.78733">
        <ele>204.42</ele>
        <time>2021-07-21T13:10:49Z</time>
      </trkpt>
      <trkpt lat="49.0106" lon="7.78733">
        <ele>203.94</ele>
        <time>2021-07-21T13:10:50Z</time>
      </trkpt>
      <trkpt lat="49.01186" lon="7.78577">
        <ele>200.09</ele>
        <time>2021-07-21T13:11:04Z</time>
      </trkpt>
      <trkpt lat="49.01303" lon="7.78416">
        <ele>194.8</ele>
        <time>2021-07-21T13:11:18Z</time>
      </trkpt>
      <trkpt lat="49.01326" lon="7.78377">
        <ele>194.8</ele>
        <time>2021-07-21T13:11:21Z</time>
      </trkpt>
      <trkpt lat="49.01334" lon="7.7836">
        <ele>194.32</ele>
        <time>2021-07-21T13:11:22Z</time>
      </trkpt>
      <trkpt lat="49.01341" lon="7.78346">
        <ele>194.32</ele>
        <time>2021-07-21T13:11:23Z</time>
      </trkpt>
      <trkpt lat="49.01345" lon="7.78326">
        <ele>194.32</ele>
        <time>2021-07-21T13:11:24Z</time>
      </trkpt>
      <trkpt lat="49.01349" lon="7.78306">
        <ele>194.32</ele>
        <time>2021-07-21T13:11:25Z</time>
      </trkpt>
      <trkpt lat="49.01353" lon="7.78285">
        <ele>194.8</ele>
        <time>2021-07-21T13:11:26Z</time>
      </trkpt>
      <trkpt lat="49.01356" lon="7.78264">
        <ele>194.8</ele>
        <time>2021-07-21T13:11:27Z</time>
      </trkpt>
      <trkpt lat="49.01357" lon="7.78241">
        <ele>194.8</ele>
        <time>2021-07-21T13:11:28Z</time>
      </trkpt>
      <trkpt lat="49.01358" lon="7.78218">
        <ele>194.8</ele>
        <time>2021-07-21T13:11:29Z</time>
      </trkpt>
      <trkpt lat="49.0138" lon="7.78014">
        <ele>197.21</ele>
        <time>2021-07-21T13:11:39Z</time>
      </trkpt>
      <trkpt lat="49.01389" lon="7.77966">
        <ele>197.69</ele>
        <time>2021-07-21T13:11:42Z</time>
      </trkpt>
      <trkpt lat="49.01395" lon="7.77956">
        <ele>197.69</ele>
        <time>2021-07-21T13:11:43Z</time>
      </trkpt>
      <trkpt lat="49.014" lon="7.77946">
        <ele>197.69</ele>
        <time>2021-07-21T13:11:44Z</time>
      </trkpt>
      <trkpt lat="49.01409" lon="7.77941">
        <ele>197.69</ele>
        <time>2021-07-21T13:11:45Z</time>
      </trkpt>
      <trkpt lat="49.01416" lon="7.77937">
        <ele>197.69</ele>
        <time>2021-07-21T13:11:46Z</time>
      </trkpt>
      <trkpt lat="49.01427" lon="7.77937">
        <ele>197.21</ele>
        <time>2021-07-21T13:11:47Z</time>
      </trkpt>
      <trkpt lat="49.01435" lon="7.7794">
        <ele>197.21</ele>
        <time>2021-07-21T13:11:48Z</time>
      </trkpt>
      <trkpt lat="49.01445" lon="7.77948">
        <ele>196.73</ele>
        <time>2021-07-21T13:11:49Z</time>
      </trkpt>
      <trkpt lat="49.01451" lon="7.77959">
        <ele>196.73</ele>
        <time>2021-07-21T13:11:50Z</time>
      </trkpt>
      <trkpt lat="49.01456" lon="7.77972">
        <ele>196.25</ele>
        <time>2021-07-21T13:11:51Z</time>
      </trkpt>
      <trkpt lat="49.01459" lon="7.77989">
        <ele>195.77</ele>
        <time>2021-07-21T13:11:52Z</time>
      </trkpt>
      <trkpt lat="49.01463" lon="7.78009">
        <ele>195.77</ele>
        <time>2021-07-21T13:11:53Z</time>
      </trkpt>
      <trkpt lat="49.01479" lon="7.78086">
        <ele>194.8</ele>
        <time>2021-07-21T13:11:57Z</time>
      </trkpt>
      <trkpt lat="49.01486" lon="7.78107">
        <ele>194.8</ele>
        <time>2021-07-21T13:11:58Z</time>
      </trkpt>
      <trkpt lat="49.01493" lon="7.78124">
        <ele>194.8</ele>
        <time>2021-07-21T13:11:59Z</time>
      </trkpt>
      <trkpt lat="49.01502" lon="7.78142">
        <ele>194.8</ele>
        <time>2021-07-21T13:12:00Z</time>
      </trkpt>
      <trkpt lat="49.01513" lon="7.78155">
        <ele>194.8</ele>
        <time>2021-07-21T13:12:01Z</time>
      </trkpt>
      <trkpt lat="49.01525" lon="7.78168">
        <ele>194.8</ele>
        <time>2021-07-21T13:12:02Z</time>
      </trkpt>
      <trkpt lat="49.01536" lon="7.7818">
        <ele>194.8</ele>
        <time>2021-07-21T13:12:03Z</time>
      </trkpt>
      <trkpt lat="49.0155" lon="7.78185">
        <ele>195.28</ele>
        <time>2021-07-21T13:12:04Z</time>
      </trkpt>
      <trkpt lat="49.01575" lon="7.78191">
        <ele>195.28</ele>
        <time>2021-07-21T13:12:05Z</time>
      </trkpt>
      <trkpt lat="49.01586" lon="7.78185">
        <ele>195.28</ele>
        <time>2021-07-21T13:12:06Z</time>
      </trkpt>
      <trkpt lat="49.01586" lon="7.78185">
        <ele>195.28</ele>
        <time>2021-07-21T13:12:07Z</time>
      </trkpt>
      <trkpt lat="49.01598" lon="7.78179">
        <ele>195.77</ele>
        <time>2021-07-21T13:12:08Z</time>
      </trkpt>
      <trkpt lat="49.01609" lon="7.78171">
        <ele>196.25</ele>
        <time>2021-07-21T13:12:09Z</time>
      </trkpt>
      <trkpt lat="49.01619" lon="7.78158">
        <ele>196.25</ele>
        <time>2021-07-21T13:12:10Z</time>
      </trkpt>
      <trkpt lat="49.01629" lon="7.78145">
        <ele>196.73</ele>
        <time>2021-07-21T13:12:11Z</time>
      </trkpt>
      <trkpt lat="49.01638" lon="7.78132">
        <ele>197.21</ele>
        <time>2021-07-21T13:12:12Z</time>
      </trkpt>
      <trkpt lat="49.01645" lon="7.78116">
        <ele>197.21</ele>
        <time>2021-07-21T13:12:13Z</time>
      </trkpt>
      <trkpt lat="49.01652" lon="7.78097">
        <ele>196.73</ele>
        <time>2021-07-21T13:12:14Z</time>
      </trkpt>
      <trkpt lat="49.01659" lon="7.78079">
        <ele>196.73</ele>
        <time>2021-07-21T13:12:15Z</time>
      </trkpt>
      <trkpt lat="49.01666" lon="7.7806">
        <ele>196.73</ele>
        <time>2021-07-21T13:12:16Z</time>
      </trkpt>
      <trkpt lat="49.01705" lon="7.77918">
        <ele>198.17</ele>
        <time>2021-07-21T13:12:22Z</time>
      </trkpt>
      <trkpt lat="49.01705" lon="7.77918">
        <ele>198.17</ele>
        <time>2021-07-21T13:12:23Z</time>
      </trkpt>
      <trkpt lat="49.01714" lon="7.77904">
        <ele>198.17</ele>
        <time>2021-07-21T13:12:24Z</time>
      </trkpt>
      <trkpt lat="49.01723" lon="7.77891">
        <ele>198.17</ele>
        <time>2021-07-21T13:12:25Z</time>
      </trkpt>
      <trkpt lat="49.01744" lon="7.77882">
        <ele>198.17</ele>
        <time>2021-07-21T13:12:26Z</time>
      </trkpt>
      <trkpt lat="49.01744" lon="7.77882">
        <ele>197.69</ele>
        <time>2021-07-21T13:12:27Z</time>
      </trkpt>
      <trkpt lat="49.0177" lon="7.77883">
        <ele>197.21</ele>
        <time>2021-07-21T13:12:28Z</time>
      </trkpt>
      <trkpt lat="49.0177" lon="7.77883">
        <ele>197.21</ele>
        <time>2021-07-21T13:12:29Z</time>
      </trkpt>
      <trkpt lat="49.01824" lon="7.77882">
        <ele>196.25</ele>
        <time>2021-07-21T13:12:33Z</time>
      </trkpt>
      <trkpt lat="49.01838" lon="7.77881">
        <ele>196.25</ele>
        <time>2021-07-21T13:12:34Z</time>
      </trkpt>
      <trkpt lat="49.01851" lon="7.77875">
        <ele>196.25</ele>
        <time>2021-07-21T13:12:35Z</time>
      </trkpt>
      <trkpt lat="49.01864" lon="7.77868">
        <ele>196.73</ele>
        <time>2021-07-21T13:12:36Z</time>
      </trkpt>
      <trkpt lat="49.01888" lon="7.77846">
        <ele>196.73</ele>
        <time>2021-07-21T13:12:37Z</time>
      </trkpt>
      <trkpt lat="49.01888" lon="7.77846">
        <ele>197.21</ele>
        <time>2021-07-21T13:12:38Z</time>
      </trkpt>
      <trkpt lat="49.01931" lon="7.77791">
        <ele>198.65</ele>
        <time>2021-07-21T13:12:41Z</time>
      </trkpt>
      <trkpt lat="49.01941" lon="7.77773">
        <ele>199.13</ele>
        <time>2021-07-21T13:12:42Z</time>
      </trkpt>
      <trkpt lat="49.01951" lon="7.77754">
        <ele>200.09</ele>
        <time>2021-07-21T13:12:43Z</time>
      </trkpt>
      <trkpt lat="49.0201" lon="7.77574">
        <ele>201.05</ele>
        <time>2021-07-21T13:12:52Z</time>
      </trkpt>
      <trkpt lat="49.02035" lon="7.77452">
        <ele>201.53</ele>
        <time>2021-07-21T13:12:57Z</time>
      </trkpt>
      <trkpt lat="49.02045" lon="7.77432">
        <ele>201.53</ele>
        <time>2021-07-21T13:12:58Z</time>
      </trkpt>
      <trkpt lat="49.02054" lon="7.77411">
        <ele>201.53</ele>
        <time>2021-07-21T13:12:59Z</time>
      </trkpt>
      <trkpt lat="49.02149" lon="7.77274">
        <ele>202.98</ele>
        <time>2021-07-21T13:13:07Z</time>
      </trkpt>
      <trkpt lat="49.02189" lon="7.77227">
        <ele>202.98</ele>
        <time>2021-07-21T13:13:10Z</time>
      </trkpt>
      <trkpt lat="49.02289" lon="7.77048">
        <ele>204.42</ele>
        <time>2021-07-21T13:13:20Z</time>
      </trkpt>
      <trkpt lat="49.02299" lon="7.77039">
        <ele>204.42</ele>
        <time>2021-07-21T13:13:21Z</time>
      </trkpt>
      <trkpt lat="49.02308" lon="7.77029">
        <ele>203.94</ele>
        <time>2021-07-21T13:13:22Z</time>
      </trkpt>
      <trkpt lat="49.02336" lon="7.77015">
        <ele>203.46</ele>
        <time>2021-07-21T13:13:26Z</time>
      </trkpt>
      <trkpt lat="49.02341" lon="7.77013">
        <ele>203.46</ele>
        <time>2021-07-21T13:13:27Z</time>
      </trkpt>
      <trkpt lat="49.02347" lon="7.7701">
        <ele>203.46</ele>
        <time>2021-07-21T13:13:28Z</time>
      </trkpt>
      <trkpt lat="49.02354" lon="7.77007">
        <ele>203.46</ele>
        <time>2021-07-21T13:13:29Z</time>
      </trkpt>
      <trkpt lat="49.02359" lon="7.77004">
        <ele>203.46</ele>
        <time>2021-07-21T13:13:30Z</time>
      </trkpt>
      <trkpt lat="49.02367" lon="7.77005">
        <ele>202.98</ele>
        <time>2021-07-21T13:13:31Z</time>
      </trkpt>
      <trkpt lat="49.02374" lon="7.77006">
        <ele>202.98</ele>
        <time>2021-07-21T13:13:32Z</time>
      </trkpt>
      <trkpt lat="49.02381" lon="7.77007">
        <ele>202.98</ele>
        <time>2021-07-21T13:13:33Z</time>
      </trkpt>
      <trkpt lat="49.02388" lon="7.7701">
        <ele>202.98</ele>
        <time>2021-07-21T13:13:34Z</time>
      </trkpt>
      <trkpt lat="49.02444" lon="7.77037">
        <ele>202.01</ele>
        <time>2021-07-21T13:13:46Z</time>
      </trkpt>
      <trkpt lat="49.0251" lon="7.77061">
        <ele>201.05</ele>
        <time>2021-07-21T13:14:01Z</time>
      </trkpt>
      <trkpt lat="49.02575" lon="7.77075">
        <ele>200.09</ele>
        <time>2021-07-21T13:14:11Z</time>
      </trkpt>
      <trkpt lat="49.02575" lon="7.77075">
        <ele>200.09</ele>
        <time>2021-07-21T13:14:12Z</time>
      </trkpt>
      <trkpt lat="49.02582" lon="7.77075">
        <ele>200.09</ele>
        <time>2021-07-21T13:14:13Z</time>
      </trkpt>
      <trkpt lat="49.02587" lon="7.7707">
        <ele>200.09</ele>
        <time>2021-07-21T13:14:14Z</time>
      </trkpt>
      <trkpt lat="49.02594" lon="7.77063">
        <ele>200.57</ele>
        <time>2021-07-21T13:14:15Z</time>
      </trkpt>
      <trkpt lat="49.02601" lon="7.77056">
        <ele>200.57</ele>
        <time>2021-07-21T13:14:16Z</time>
      </trkpt>
      <trkpt lat="49.02607" lon="7.77047">
        <ele>201.05</ele>
        <time>2021-07-21T13:14:17Z</time>
      </trkpt>
      <trkpt lat="49.02614" lon="7.77037">
        <ele>201.05</ele>
        <time>2021-07-21T13:14:18Z</time>
      </trkpt>
      <trkpt lat="49.02684" lon="7.76943">
        <ele>201.53</ele>
        <time>2021-07-21T13:14:26Z</time>
      </trkpt>
      <trkpt lat="49.02694" lon="7.7693">
        <ele>201.53</ele>
        <time>2021-07-21T13:14:27Z</time>
      </trkpt>
      <trkpt lat="49.02821" lon="7.76728">
        <ele>202.98</ele>
        <time>2021-07-21T13:14:38Z</time>
      </trkpt>
      <trkpt lat="49.02821" lon="7.76728">
        <ele>202.98</ele>
        <time>2021-07-21T13:14:39Z</time>
      </trkpt>
      <trkpt lat="49.0293" lon="7.7664">
        <ele>205.86</ele>
        <time>2021-07-21T13:14:47Z</time>
      </trkpt>
      <trkpt lat="49.02942" lon="7.76631">
        <ele>206.34</ele>
        <time>2021-07-21T13:14:48Z</time>
      </trkpt>
      <trkpt lat="49.02953" lon="7.76619">
        <ele>206.34</ele>
        <time>2021-07-21T13:14:49Z</time>
      </trkpt>
      <trkpt lat="49.0296" lon="7.76604">
        <ele>206.82</ele>
        <time>2021-07-21T13:14:50Z</time>
      </trkpt>
      <trkpt lat="49.02968" lon="7.76588">
        <ele>206.82</ele>
        <time>2021-07-21T13:14:51Z</time>
      </trkpt>
      <trkpt lat="49.02975" lon="7.76571">
        <ele>207.3</ele>
        <time>2021-07-21T13:14:52Z</time>
      </trkpt>
      <trkpt lat="49.03076" lon="7.76345">
        <ele>210.19</ele>
        <time>2021-07-21T13:15:04Z</time>
      </trkpt>
      <trkpt lat="49.03139" lon="7.76138">
        <ele>214.03</ele>
        <time>2021-07-21T13:15:13Z</time>
      </trkpt>
      <trkpt lat="49.0315" lon="7.7592">
        <ele>214.03</ele>
        <time>2021-07-21T13:15:21Z</time>
      </trkpt>
      <trkpt lat="49.03167" lon="7.75678">
        <ele>217.4</ele>
        <time>2021-07-21T13:15:30Z</time>
      </trkpt>
      <trkpt lat="49.03221" lon="7.75374">
        <ele>218.84</ele>
        <time>2021-07-21T13:15:41Z</time>
      </trkpt>
      <trkpt lat="49.03234" lon="7.75301">
        <ele>220.28</ele>
        <time>2021-07-21T13:15:44Z</time>
      </trkpt>
      <trkpt lat="49.03235" lon="7.75254">
        <ele>220.76</ele>
        <time>2021-07-21T13:15:45Z</time>
      </trkpt>
      <trkpt lat="49.03235" lon="7.75254">
        <ele>221.24</ele>
        <time>2021-07-21T13:15:46Z</time>
      </trkpt>
      <trkpt lat="49.03234" lon="7.75229">
        <ele>221.24</ele>
        <time>2021-07-21T13:15:47Z</time>
      </trkpt>
      <trkpt lat="49.03233" lon="7.75204">
        <ele>221.24</ele>
        <time>2021-07-21T13:15:48Z</time>
      </trkpt>
      <trkpt lat="49.03208" lon="7.74982">
        <ele>224.61</ele>
        <time>2021-07-21T13:15:57Z</time>
      </trkpt>
      <trkpt lat="49.03199" lon="7.74941">
        <ele>225.09</ele>
        <time>2021-07-21T13:15:59Z</time>
      </trkpt>
      <trkpt lat="49.03182" lon="7.74909">
        <ele>225.09</ele>
        <time>2021-07-21T13:16:00Z</time>
      </trkpt>
      <trkpt lat="49.03182" lon="7.74909">
        <ele>225.09</ele>
        <time>2021-07-21T13:16:01Z</time>
      </trkpt>
      <trkpt lat="49.03094" lon="7.74746">
        <ele>227.49</ele>
        <time>2021-07-21T13:16:10Z</time>
      </trkpt>
      <trkpt lat="49.02991" lon="7.74495">
        <ele>229.89</ele>
        <time>2021-07-21T13:16:20Z</time>
      </trkpt>
      <trkpt lat="49.02974" lon="7.74428">
        <ele>228.45</ele>
        <time>2021-07-21T13:16:23Z</time>
      </trkpt>
      <trkpt lat="49.02974" lon="7.74428">
        <ele>227.49</ele>
        <time>2021-07-21T13:16:24Z</time>
      </trkpt>
      <trkpt lat="49.02971" lon="7.74407">
        <ele>227.01</ele>
        <time>2021-07-21T13:16:25Z</time>
      </trkpt>
      <trkpt lat="49.02974" lon="7.74363">
        <ele>226.53</ele>
        <time>2021-07-21T13:16:26Z</time>
      </trkpt>
      <trkpt lat="49.02974" lon="7.74363">
        <ele>226.05</ele>
        <time>2021-07-21T13:16:27Z</time>
      </trkpt>
      <trkpt lat="49.02981" lon="7.74316">
        <ele>226.05</ele>
        <time>2021-07-21T13:16:28Z</time>
      </trkpt>
      <trkpt lat="49.03018" lon="7.74098">
        <ele>224.61</ele>
        <time>2021-07-21T13:16:38Z</time>
      </trkpt>
      <trkpt lat="49.03019" lon="7.74074">
        <ele>224.12</ele>
        <time>2021-07-21T13:16:39Z</time>
      </trkpt>
      <trkpt lat="49.0302" lon="7.7405">
        <ele>224.61</ele>
        <time>2021-07-21T13:16:40Z</time>
      </trkpt>
      <trkpt lat="49.03017" lon="7.74028">
        <ele>224.12</ele>
        <time>2021-07-21T13:16:41Z</time>
      </trkpt>
      <trkpt lat="49.03012" lon="7.74007">
        <ele>224.12</ele>
        <time>2021-07-21T13:16:42Z</time>
      </trkpt>
      <trkpt lat="49.03004" lon="7.73985">
        <ele>223.64</ele>
        <time>2021-07-21T13:16:43Z</time>
      </trkpt>
      <trkpt lat="49.02881" lon="7.73719">
        <ele>220.76</ele>
        <time>2021-07-21T13:16:55Z</time>
      </trkpt>
      <trkpt lat="49.02768" lon="7.73451">
        <ele>224.12</ele>
        <time>2021-07-21T13:17:06Z</time>
      </trkpt>
      <trkpt lat="49.02723" lon="7.7332">
        <ele>225.57</ele>
        <time>2021-07-21T13:17:12Z</time>
      </trkpt>
      <trkpt lat="49.02719" lon="7.733">
        <ele>225.57</ele>
        <time>2021-07-21T13:17:13Z</time>
      </trkpt>
      <trkpt lat="49.02717" lon="7.73279">
        <ele>225.57</ele>
        <time>2021-07-21T13:17:14Z</time>
      </trkpt>
      <trkpt lat="49.02717" lon="7.7326">
        <ele>226.05</ele>
        <time>2021-07-21T13:17:15Z</time>
      </trkpt>
      <trkpt lat="49.02719" lon="7.73241">
        <ele>225.09</ele>
        <time>2021-07-21T13:17:16Z</time>
      </trkpt>
      <trkpt lat="49.02724" lon="7.73224">
        <ele>225.09</ele>
        <time>2021-07-21T13:17:17Z</time>
      </trkpt>
      <trkpt lat="49.02731" lon="7.73207">
        <ele>225.09</ele>
        <time>2021-07-21T13:17:18Z</time>
      </trkpt>
      <trkpt lat="49.02762" lon="7.73131">
        <ele>225.09</ele>
        <time>2021-07-21T13:17:22Z</time>
      </trkpt>
      <trkpt lat="49.02767" lon="7.7311">
        <ele>225.09</ele>
        <time>2021-07-21T13:17:23Z</time>
      </trkpt>
      <trkpt lat="49.02769" lon="7.73088">
        <ele>224.61</ele>
        <time>2021-07-21T13:17:24Z</time>
      </trkpt>
      <trkpt lat="49.02767" lon="7.73044">
        <ele>223.64</ele>
        <time>2021-07-21T13:17:25Z</time>
      </trkpt>
      <trkpt lat="49.02767" lon="7.73044">
        <ele>223.16</ele>
        <time>2021-07-21T13:17:26Z</time>
      </trkpt>
      <trkpt lat="49.02746" lon="7.72742">
        <ele>221.72</ele>
        <time>2021-07-21T13:17:38Z</time>
      </trkpt>
      <trkpt lat="49.02749" lon="7.7267">
        <ele>222.68</ele>
        <time>2021-07-21T13:17:40Z</time>
      </trkpt>
      <trkpt lat="49.02752" lon="7.72646">
        <ele>223.16</ele>
        <time>2021-07-21T13:17:41Z</time>
      </trkpt>
      <trkpt lat="49.02795" lon="7.7244">
        <ele>222.68</ele>
        <time>2021-07-21T13:17:50Z</time>
      </trkpt>
      <trkpt lat="49.02877" lon="7.72245">
        <ele>225.57</ele>
        <time>2021-07-21T13:17:58Z</time>
      </trkpt>
      <trkpt lat="49.0295" lon="7.7208">
        <ele>228.93</ele>
        <time>2021-07-21T13:18:05Z</time>
      </trkpt>
      <trkpt lat="49.02959" lon="7.72061">
        <ele>228.45</ele>
        <time>2021-07-21T13:18:06Z</time>
      </trkpt>
      <trkpt lat="49.02965" lon="7.72041">
        <ele>227.49</ele>
        <time>2021-07-21T13:18:07Z</time>
      </trkpt>
      <trkpt lat="49.02971" lon="7.71997">
        <ele>226.53</ele>
        <time>2021-07-21T13:18:08Z</time>
      </trkpt>
      <trkpt lat="49.02971" lon="7.71997">
        <ele>226.05</ele>
        <time>2021-07-21T13:18:09Z</time>
      </trkpt>
      <trkpt lat="49.02977" lon="7.71817">
        <ele>228.93</ele>
        <time>2021-07-21T13:18:18Z</time>
      </trkpt>
      <trkpt lat="49.02965" lon="7.71652">
        <ele>229.41</ele>
        <time>2021-07-21T13:18:29Z</time>
      </trkpt>
      <trkpt lat="49.02953" lon="7.71468">
        <ele>230.85</ele>
        <time>2021-07-21T13:18:41Z</time>
      </trkpt>
      <trkpt lat="49.02979" lon="7.71328">
        <ele>230.85</ele>
        <time>2021-07-21T13:18:51Z</time>
      </trkpt>
      <trkpt lat="49.03023" lon="7.7118">
        <ele>231.81</ele>
        <time>2021-07-21T13:19:02Z</time>
      </trkpt>
      <trkpt lat="49.03026" lon="7.71167">
        <ele>232.3</ele>
        <time>2021-07-21T13:19:03Z</time>
      </trkpt>
      <trkpt lat="49.0303" lon="7.71155">
        <ele>232.3</ele>
        <time>2021-07-21T13:19:04Z</time>
      </trkpt>
      <trkpt lat="49.03036" lon="7.71144">
        <ele>232.3</ele>
        <time>2021-07-21T13:19:05Z</time>
      </trkpt>
      <trkpt lat="49.03043" lon="7.71134">
        <ele>232.78</ele>
        <time>2021-07-21T13:19:06Z</time>
      </trkpt>
      <trkpt lat="49.0305" lon="7.71123">
        <ele>232.78</ele>
        <time>2021-07-21T13:19:07Z</time>
      </trkpt>
      <trkpt lat="49.03057" lon="7.71112">
        <ele>232.78</ele>
        <time>2021-07-21T13:19:08Z</time>
      </trkpt>
      <trkpt lat="49.03063" lon="7.71102">
        <ele>233.26</ele>
        <time>2021-07-21T13:19:09Z</time>
      </trkpt>
      <trkpt lat="49.03071" lon="7.71094">
        <ele>233.74</ele>
        <time>2021-07-21T13:19:10Z</time>
      </trkpt>
      <trkpt lat="49.0308" lon="7.71088">
        <ele>233.74</ele>
        <time>2021-07-21T13:19:11Z</time>
      </trkpt>
      <trkpt lat="49.0309" lon="7.71082">
        <ele>233.74</ele>
        <time>2021-07-21T13:19:12Z</time>
      </trkpt>
      <trkpt lat="49.031" lon="7.71078">
        <ele>234.22</ele>
        <time>2021-07-21T13:19:13Z</time>
      </trkpt>
      <trkpt lat="49.03163" lon="7.71051">
        <ele>234.7</ele>
        <time>2021-07-21T13:19:19Z</time>
      </trkpt>
      <trkpt lat="49.03173" lon="7.71047">
        <ele>235.18</ele>
        <time>2021-07-21T13:19:20Z</time>
      </trkpt>
      <trkpt lat="49.03181" lon="7.71037">
        <ele>235.18</ele>
        <time>2021-07-21T13:19:21Z</time>
      </trkpt>
      <trkpt lat="49.0319" lon="7.71026">
        <ele>235.18</ele>
        <time>2021-07-21T13:19:22Z</time>
      </trkpt>
      <trkpt lat="49.03199" lon="7.71015">
        <ele>235.66</ele>
        <time>2021-07-21T13:19:23Z</time>
      </trkpt>
      <trkpt lat="49.03206" lon="7.71003">
        <ele>235.66</ele>
        <time>2021-07-21T13:19:24Z</time>
      </trkpt>
      <trkpt lat="49.03214" lon="7.70988">
        <ele>236.14</ele>
        <time>2021-07-21T13:19:25Z</time>
      </trkpt>
      <trkpt lat="49.03267" lon="7.7083">
        <ele>237.1</ele>
        <time>2021-07-21T13:19:34Z</time>
      </trkpt>
      <trkpt lat="49.03301" lon="7.70638">
        <ele>239.99</ele>
        <time>2021-07-21T13:19:43Z</time>
      </trkpt>
      <trkpt lat="49.03386" lon="7.70436">
        <ele>239.51</ele>
        <time>2021-07-21T13:19:52Z</time>
      </trkpt>
      <trkpt lat="49.03386" lon="7.70436">
        <ele>239.51</ele>
        <time>2021-07-21T13:19:53Z</time>
      </trkpt>
      <trkpt lat="49.03388" lon="7.70412">
        <ele>239.99</ele>
        <time>2021-07-21T13:19:54Z</time>
      </trkpt>
      <trkpt lat="49.03391" lon="7.70175">
        <ele>241.91</ele>
        <time>2021-07-21T13:20:03Z</time>
      </trkpt>
      <trkpt lat="49.03394" lon="7.70097">
        <ele>242.87</ele>
        <time>2021-07-21T13:20:06Z</time>
      </trkpt>
      <trkpt lat="49.034" lon="7.70046">
        <ele>242.87</ele>
        <time>2021-07-21T13:20:07Z</time>
      </trkpt>
      <trkpt lat="49.034" lon="7.70046">
        <ele>242.87</ele>
        <time>2021-07-21T13:20:08Z</time>
      </trkpt>
      <trkpt lat="49.0341" lon="7.69994">
        <ele>242.87</ele>
        <time>2021-07-21T13:20:09Z</time>
      </trkpt>
      <trkpt lat="49.0341" lon="7.69994">
        <ele>242.87</ele>
        <time>2021-07-21T13:20:10Z</time>
      </trkpt>
      <trkpt lat="49.03418" lon="7.6997">
        <ele>242.87</ele>
        <time>2021-07-21T13:20:11Z</time>
      </trkpt>
      <trkpt lat="49.03427" lon="7.69947">
        <ele>242.39</ele>
        <time>2021-07-21T13:20:12Z</time>
      </trkpt>
      <trkpt lat="49.03466" lon="7.69846">
        <ele>243.35</ele>
        <time>2021-07-21T13:20:18Z</time>
      </trkpt>
      <trkpt lat="49.03483" lon="7.69789">
        <ele>244.31</ele>
        <time>2021-07-21T13:20:22Z</time>
      </trkpt>
      <trkpt lat="49.03483" lon="7.69789">
        <ele>244.31</ele>
        <time>2021-07-21T13:20:23Z</time>
      </trkpt>
      <trkpt lat="49.03487" lon="7.69778">
        <ele>244.79</ele>
        <time>2021-07-21T13:20:24Z</time>
      </trkpt>
      <trkpt lat="49.03495" lon="7.69604">
        <ele>243.35</ele>
        <time>2021-07-21T13:20:36Z</time>
      </trkpt>
      <trkpt lat="49.03496" lon="7.6959">
        <ele>243.35</ele>
        <time>2021-07-21T13:20:37Z</time>
      </trkpt>
      <trkpt lat="49.03498" lon="7.69576">
        <ele>243.35</ele>
        <time>2021-07-21T13:20:38Z</time>
      </trkpt>
      <trkpt lat="49.035" lon="7.69565">
        <ele>243.35</ele>
        <time>2021-07-21T13:20:39Z</time>
      </trkpt>
      <trkpt lat="49.03505" lon="7.69552">
        <ele>243.35</ele>
        <time>2021-07-21T13:20:40Z</time>
      </trkpt>
      <trkpt lat="49.0351" lon="7.6954">
        <ele>243.35</ele>
        <time>2021-07-21T13:20:41Z</time>
      </trkpt>
      <trkpt lat="49.03515" lon="7.69528">
        <ele>243.35</ele>
        <time>2021-07-21T13:20:42Z</time>
      </trkpt>
      <trkpt lat="49.0352" lon="7.69515">
        <ele>243.83</ele>
        <time>2021-07-21T13:20:43Z</time>
      </trkpt>
      <trkpt lat="49.03541" lon="7.69456">
        <ele>244.31</ele>
        <time>2021-07-21T13:20:48Z</time>
      </trkpt>
      <trkpt lat="49.03545" lon="7.69443">
        <ele>244.31</ele>
        <time>2021-07-21T13:20:49Z</time>
      </trkpt>
      <trkpt lat="49.03548" lon="7.6943">
        <ele>244.31</ele>
        <time>2021-07-21T13:20:50Z</time>
      </trkpt>
      <trkpt lat="49.03567" lon="7.69196">
        <ele>246.72</ele>
        <time>2021-07-21T13:21:06Z</time>
      </trkpt>
      <trkpt lat="49.03586" lon="7.68988">
        <ele>247.68</ele>
        <time>2021-07-21T13:21:19Z</time>
      </trkpt>
      <trkpt lat="49.03589" lon="7.68945">
        <ele>248.16</ele>
        <time>2021-07-21T13:21:23Z</time>
      </trkpt>
      <trkpt lat="49.03588" lon="7.68933">
        <ele>248.16</ele>
        <time>2021-07-21T13:21:24Z</time>
      </trkpt>
      <trkpt lat="49.03582" lon="7.68872">
        <ele>248.16</ele>
        <time>2021-07-21T13:21:29Z</time>
      </trkpt>
      <trkpt lat="49.0358" lon="7.6886">
        <ele>247.68</ele>
        <time>2021-07-21T13:21:30Z</time>
      </trkpt>
      <trkpt lat="49.03582" lon="7.6885">
        <ele>247.68</ele>
        <time>2021-07-21T13:21:31Z</time>
      </trkpt>
      <trkpt lat="49.03585" lon="7.68838">
        <ele>247.2</ele>
        <time>2021-07-21T13:21:32Z</time>
      </trkpt>
      <trkpt lat="49.03588" lon="7.68827">
        <ele>247.68</ele>
        <time>2021-07-21T13:21:33Z</time>
      </trkpt>
      <trkpt lat="49.03593" lon="7.68802">
        <ele>247.68</ele>
        <time>2021-07-21T13:21:35Z</time>
      </trkpt>
      <trkpt lat="49.03596" lon="7.6879">
        <ele>247.68</ele>
        <time>2021-07-21T13:21:36Z</time>
      </trkpt>
      <trkpt lat="49.0361" lon="7.68673">
        <ele>247.68</ele>
        <time>2021-07-21T13:21:45Z</time>
      </trkpt>
      <trkpt lat="49.03612" lon="7.6866">
        <ele>247.68</ele>
        <time>2021-07-21T13:21:46Z</time>
      </trkpt>
      <trkpt lat="49.03662" lon="7.68428">
        <ele>251.04</ele>
        <time>2021-07-21T13:22:03Z</time>
      </trkpt>
      <trkpt lat="49.03703" lon="7.68252">
        <ele>252</ele>
        <time>2021-07-21T13:22:16Z</time>
      </trkpt>
      <trkpt lat="49.03714" lon="7.68211">
        <ele>251.52</ele>
        <time>2021-07-21T13:22:20Z</time>
      </trkpt>
      <trkpt lat="49.03715" lon="7.68197">
        <ele>251.04</ele>
        <time>2021-07-21T13:22:21Z</time>
      </trkpt>
      <trkpt lat="49.03715" lon="7.68183">
        <ele>251.04</ele>
        <time>2021-07-21T13:22:22Z</time>
      </trkpt>
      <trkpt lat="49.03713" lon="7.68169">
        <ele>251.04</ele>
        <time>2021-07-21T13:22:23Z</time>
      </trkpt>
      <trkpt lat="49.03712" lon="7.68154">
        <ele>251.04</ele>
        <time>2021-07-21T13:22:24Z</time>
      </trkpt>
      <trkpt lat="49.037" lon="7.68">
        <ele>253.93</ele>
        <time>2021-07-21T13:22:34Z</time>
      </trkpt>
      <trkpt lat="49.03701" lon="7.67984">
        <ele>253.44</ele>
        <time>2021-07-21T13:22:35Z</time>
      </trkpt>
      <trkpt lat="49.03711" lon="7.67798">
        <ele>252.96</ele>
        <time>2021-07-21T13:22:46Z</time>
      </trkpt>
      <trkpt lat="49.0371" lon="7.67772">
        <ele>252.48</ele>
        <time>2021-07-21T13:22:48Z</time>
      </trkpt>
      <trkpt lat="49.03709" lon="7.6776">
        <ele>252.48</ele>
        <time>2021-07-21T13:22:49Z</time>
      </trkpt>
      <trkpt lat="49.03705" lon="7.67737">
        <ele>252</ele>
        <time>2021-07-21T13:22:50Z</time>
      </trkpt>
      <trkpt lat="49.037" lon="7.67715">
        <ele>252</ele>
        <time>2021-07-21T13:22:55Z</time>
      </trkpt>
      <trkpt lat="49.03699" lon="7.67711">
        <ele>251.52</ele>
        <time>2021-07-21T13:23:05Z</time>
      </trkpt>
      <trkpt lat="49.03699" lon="7.67711">
        <ele>251.52</ele>
        <time>2021-07-21T13:23:06Z</time>
      </trkpt>
      <trkpt lat="49.03647" lon="7.67712">
        <ele>250.08</ele>
        <time>2021-07-21T13:23:15Z</time>
      </trkpt>
      <trkpt lat="49.03605" lon="7.67699">
        <ele>250.08</ele>
        <time>2021-07-21T13:23:23Z</time>
      </trkpt>
      <trkpt lat="49.03598" lon="7.67693">
        <ele>250.08</ele>
        <time>2021-07-21T13:23:27Z</time>
      </trkpt>
      <trkpt lat="49.03594" lon="7.67682">
        <ele>250.08</ele>
        <time>2021-07-21T13:23:28Z</time>
      </trkpt>
      <trkpt lat="49.03592" lon="7.67676">
        <ele>250.08</ele>
        <time>2021-07-21T13:23:29Z</time>
      </trkpt>
      <trkpt lat="49.0359" lon="7.67671">
        <ele>249.6</ele>
        <time>2021-07-21T13:23:30Z</time>
      </trkpt>
      <trkpt lat="49.0359" lon="7.67671">
        <ele>250.08</ele>
        <time>2021-07-21T13:23:31Z</time>
      </trkpt>
      <trkpt lat="49.03587" lon="7.67663">
        <ele>250.08</ele>
        <time>2021-07-21T13:23:32Z</time>
      </trkpt>
      <trkpt lat="49.03587" lon="7.67659">
        <ele>250.56</ele>
        <time>2021-07-21T13:23:33Z</time>
      </trkpt>
      <trkpt lat="49.03588" lon="7.67654">
        <ele>250.56</ele>
        <time>2021-07-21T13:23:34Z</time>
      </trkpt>
      <trkpt lat="49.0359" lon="7.67645">
        <ele>251.04</ele>
        <time>2021-07-21T13:23:35Z</time>
      </trkpt>
      <trkpt lat="49.0359" lon="7.67645">
        <ele>251.04</ele>
        <time>2021-07-21T13:23:36Z</time>
      </trkpt>
      <trkpt lat="49.0359" lon="7.67642">
        <ele>251.52</ele>
        <time>2021-07-21T13:23:37Z</time>
      </trkpt>
      <trkpt lat="49.03587" lon="7.67663">
        <ele>251.52</ele>
        <time>2021-07-21T13:23:38Z</time>
      </trkpt>
      <trkpt lat="49.0359" lon="7.67644">
        <ele>251.52</ele>
        <time>2021-07-21T13:23:39Z</time>
      </trkpt>
      <trkpt lat="49.0359" lon="7.67646">
        <ele>251.52</ele>
        <time>2021-07-21T13:23:40Z</time>
      </trkpt>
      <trkpt lat="49.03589" lon="7.67648">
        <ele>251.04</ele>
        <time>2021-07-21T13:23:52Z</time>
      </trkpt>
      <trkpt lat="49.03589" lon="7.6765">
        <ele>251.04</ele>
        <time>2021-07-21T13:23:53Z</time>
      </trkpt>
      <trkpt lat="49.03588" lon="7.67653">
        <ele>250.56</ele>
        <time>2021-07-21T13:23:54Z</time>
      </trkpt>
      <trkpt lat="49.03591" lon="7.67674">
        <ele>249.6</ele>
        <time>2021-07-21T13:23:58Z</time>
      </trkpt>
      <trkpt lat="49.03593" lon="7.67679">
        <ele>249.12</ele>
        <time>2021-07-21T13:23:59Z</time>
      </trkpt>
      <trkpt lat="49.03596" lon="7.67685">
        <ele>248.64</ele>
        <time>2021-07-21T13:24:00Z</time>
      </trkpt>
      <trkpt lat="49.03602" lon="7.67697">
        <ele>248.64</ele>
        <time>2021-07-21T13:24:01Z</time>
      </trkpt>
      <trkpt lat="49.03602" lon="7.67697">
        <ele>248.64</ele>
        <time>2021-07-21T13:24:02Z</time>
      </trkpt>
      <trkpt lat="49.03606" lon="7.67699">
        <ele>249.12</ele>
        <time>2021-07-21T13:24:03Z</time>
      </trkpt>
      <trkpt lat="49.0361" lon="7.67702">
        <ele>249.6</ele>
        <time>2021-07-21T13:24:04Z</time>
      </trkpt>
      <trkpt lat="49.03615" lon="7.67705">
        <ele>250.08</ele>
        <time>2021-07-21T13:24:05Z</time>
      </trkpt>
      <trkpt lat="49.03689" lon="7.67717">
        <ele>251.52</ele>
        <time>2021-07-21T13:24:18Z</time>
      </trkpt>
      <trkpt lat="49.03699" lon="7.67719">
        <ele>251.52</ele>
        <time>2021-07-21T13:24:23Z</time>
      </trkpt>
      <trkpt lat="49.037" lon="7.67715">
        <ele>252</ele>
        <time>2021-07-21T13:24:24Z</time>
      </trkpt>
      <trkpt lat="49.03699" lon="7.67711">
        <ele>252</ele>
        <time>2021-07-21T13:24:25Z</time>
      </trkpt>
      <trkpt lat="49.03698" lon="7.67705">
        <ele>251.52</ele>
        <time>2021-07-21T13:24:26Z</time>
      </trkpt>
      <trkpt lat="49.03697" lon="7.67698">
        <ele>251.04</ele>
        <time>2021-07-21T13:24:27Z</time>
      </trkpt>
      <trkpt lat="49.03695" lon="7.6769">
        <ele>250.56</ele>
        <time>2021-07-21T13:24:28Z</time>
      </trkpt>
      <trkpt lat="49.0367" lon="7.67572">
        <ele>250.08</ele>
        <time>2021-07-21T13:24:38Z</time>
      </trkpt>
      <trkpt lat="49.03648" lon="7.67488">
        <ele>252.96</ele>
        <time>2021-07-21T13:24:48Z</time>
      </trkpt>
      <trkpt lat="49.03647" lon="7.67482">
        <ele>252.96</ele>
        <time>2021-07-21T13:24:49Z</time>
      </trkpt>
      <trkpt lat="49.03638" lon="7.67388">
        <ele>254.41</ele>
        <time>2021-07-21T13:24:58Z</time>
      </trkpt>
      <trkpt lat="49.03622" lon="7.67224">
        <ele>257.77</ele>
        <time>2021-07-21T13:25:09Z</time>
      </trkpt>
      <trkpt lat="49.03569" lon="7.67072">
        <ele>258.73</ele>
        <time>2021-07-21T13:25:18Z</time>
      </trkpt>
      <trkpt lat="49.03536" lon="7.67002">
        <ele>258.25</ele>
        <time>2021-07-21T13:25:22Z</time>
      </trkpt>
      <trkpt lat="49.03526" lon="7.66986">
        <ele>257.29</ele>
        <time>2021-07-21T13:25:23Z</time>
      </trkpt>
      <trkpt lat="49.03515" lon="7.6697">
        <ele>255.85</ele>
        <time>2021-07-21T13:25:24Z</time>
      </trkpt>
      <trkpt lat="49.03503" lon="7.66958">
        <ele>255.85</ele>
        <time>2021-07-21T13:25:25Z</time>
      </trkpt>
      <trkpt lat="49.03477" lon="7.66935">
        <ele>255.37</ele>
        <time>2021-07-21T13:25:26Z</time>
      </trkpt>
      <trkpt lat="49.03309" lon="7.66813">
        <ele>253.93</ele>
        <time>2021-07-21T13:25:38Z</time>
      </trkpt>
      <trkpt lat="49.03256" lon="7.66779">
        <ele>253.93</ele>
        <time>2021-07-21T13:25:43Z</time>
      </trkpt>
      <trkpt lat="49.03154" lon="7.66769">
        <ele>254.41</ele>
        <time>2021-07-21T13:25:50Z</time>
      </trkpt>
      <trkpt lat="49.02975" lon="7.66829">
        <ele>258.73</ele>
        <time>2021-07-21T13:26:02Z</time>
      </trkpt>
      <trkpt lat="49.02961" lon="7.66834">
        <ele>259.21</ele>
        <time>2021-07-21T13:26:03Z</time>
      </trkpt>
      <trkpt lat="49.02948" lon="7.66835">
        <ele>259.69</ele>
        <time>2021-07-21T13:26:04Z</time>
      </trkpt>
      <trkpt lat="49.02934" lon="7.66834">
        <ele>260.17</ele>
        <time>2021-07-21T13:26:05Z</time>
      </trkpt>
      <trkpt lat="49.02893" lon="7.66821">
        <ele>261.14</ele>
        <time>2021-07-21T13:26:07Z</time>
      </trkpt>
      <trkpt lat="49.02734" lon="7.66728">
        <ele>268.83</ele>
        <time>2021-07-21T13:26:19Z</time>
      </trkpt>
      <trkpt lat="49.02631" lon="7.66702">
        <ele>273.15</ele>
        <time>2021-07-21T13:26:26Z</time>
      </trkpt>
      <trkpt lat="49.02599" lon="7.66693">
        <ele>277</ele>
        <time>2021-07-21T13:26:31Z</time>
      </trkpt>
      <trkpt lat="49.02578" lon="7.66688">
        <ele>283.73</ele>
        <time>2021-07-21T13:26:42Z</time>
      </trkpt>
      <trkpt lat="49.02513" lon="7.66665">
        <ele>288.05</ele>
        <time>2021-07-21T13:26:51Z</time>
      </trkpt>
      <trkpt lat="49.02415" lon="7.66626">
        <ele>289.97</ele>
        <time>2021-07-21T13:26:59Z</time>
      </trkpt>
      <trkpt lat="49.02333" lon="7.66603">
        <ele>290.94</ele>
        <time>2021-07-21T13:27:07Z</time>
      </trkpt>
      <trkpt lat="49.02246" lon="7.66579">
        <ele>291.42</ele>
        <time>2021-07-21T13:27:16Z</time>
      </trkpt>
      <trkpt lat="49.02099" lon="7.66516">
        <ele>292.38</ele>
        <time>2021-07-21T13:27:27Z</time>
      </trkpt>
      <trkpt lat="49.01955" lon="7.66393">
        <ele>292.86</ele>
        <time>2021-07-21T13:27:39Z</time>
      </trkpt>
      <trkpt lat="49.01806" lon="7.66242">
        <ele>293.34</ele>
        <time>2021-07-21T13:27:50Z</time>
      </trkpt>
      <trkpt lat="49.0166" lon="7.6608">
        <ele>292.86</ele>
        <time>2021-07-21T13:28:01Z</time>
      </trkpt>
      <trkpt lat="49.01557" lon="7.65963">
        <ele>290.46</ele>
        <time>2021-07-21T13:28:10Z</time>
      </trkpt>
      <trkpt lat="49.01476" lon="7.65892">
        <ele>288.05</ele>
        <time>2021-07-21T13:28:18Z</time>
      </trkpt>
      <trkpt lat="49.01416" lon="7.65856">
        <ele>280.84</ele>
        <time>2021-07-21T13:28:27Z</time>
      </trkpt>
      <trkpt lat="49.01351" lon="7.65827">
        <ele>274.59</ele>
        <time>2021-07-21T13:28:35Z</time>
      </trkpt>
      <trkpt lat="49.01342" lon="7.65826">
        <ele>273.63</ele>
        <time>2021-07-21T13:28:36Z</time>
      </trkpt>
      <trkpt lat="49.01332" lon="7.65824">
        <ele>272.19</ele>
        <time>2021-07-21T13:28:37Z</time>
      </trkpt>
      <trkpt lat="49.0131" lon="7.65828">
        <ele>271.23</ele>
        <time>2021-07-21T13:28:39Z</time>
      </trkpt>
      <trkpt lat="49.01209" lon="7.65897">
        <ele>267.86</ele>
        <time>2021-07-21T13:28:48Z</time>
      </trkpt>
      <trkpt lat="49.01133" lon="7.66028">
        <ele>263.54</ele>
        <time>2021-07-21T13:28:57Z</time>
      </trkpt>
      <trkpt lat="49.01093" lon="7.66148">
        <ele>259.69</ele>
        <time>2021-07-21T13:29:04Z</time>
      </trkpt>
      <trkpt lat="49.01085" lon="7.66185">
        <ele>259.21</ele>
        <time>2021-07-21T13:29:05Z</time>
      </trkpt>
      <trkpt lat="49.01085" lon="7.66185">
        <ele>258.73</ele>
        <time>2021-07-21T13:29:06Z</time>
      </trkpt>
      <trkpt lat="49.01083" lon="7.66205">
        <ele>258.25</ele>
        <time>2021-07-21T13:29:07Z</time>
      </trkpt>
      <trkpt lat="49.01081" lon="7.66225">
        <ele>258.25</ele>
        <time>2021-07-21T13:29:08Z</time>
      </trkpt>
      <trkpt lat="49.01066" lon="7.66364">
        <ele>254.41</ele>
        <time>2021-07-21T13:29:15Z</time>
      </trkpt>
      <trkpt lat="49.01064" lon="7.66382">
        <ele>252.96</ele>
        <time>2021-07-21T13:29:16Z</time>
      </trkpt>
      <trkpt lat="49.01058" lon="7.66397">
        <ele>252</ele>
        <time>2021-07-21T13:29:17Z</time>
      </trkpt>
      <trkpt lat="49.01052" lon="7.66412">
        <ele>250.56</ele>
        <time>2021-07-21T13:29:18Z</time>
      </trkpt>
      <trkpt lat="49.01043" lon="7.66424">
        <ele>249.6</ele>
        <time>2021-07-21T13:29:19Z</time>
      </trkpt>
      <trkpt lat="49.01033" lon="7.66434">
        <ele>248.64</ele>
        <time>2021-07-21T13:29:20Z</time>
      </trkpt>
      <trkpt lat="49.01022" lon="7.66445">
        <ele>248.16</ele>
        <time>2021-07-21T13:29:21Z</time>
      </trkpt>
      <trkpt lat="49.01009" lon="7.66448">
        <ele>247.68</ele>
        <time>2021-07-21T13:29:22Z</time>
      </trkpt>
      <trkpt lat="49.00996" lon="7.6645">
        <ele>247.2</ele>
        <time>2021-07-21T13:29:23Z</time>
      </trkpt>
      <trkpt lat="49.00982" lon="7.66451">
        <ele>246.72</ele>
        <time>2021-07-21T13:29:24Z</time>
      </trkpt>
      <trkpt lat="49.00898" lon="7.66467">
        <ele>248.64</ele>
        <time>2021-07-21T13:29:30Z</time>
      </trkpt>
      <trkpt lat="49.00884" lon="7.66471">
        <ele>249.12</ele>
        <time>2021-07-21T13:29:31Z</time>
      </trkpt>
      <trkpt lat="49.00768" lon="7.66546">
        <ele>253.44</ele>
        <time>2021-07-21T13:29:41Z</time>
      </trkpt>
      <trkpt lat="49.00728" lon="7.66556">
        <ele>254.89</ele>
        <time>2021-07-21T13:29:45Z</time>
      </trkpt>
      <trkpt lat="49.00718" lon="7.66555">
        <ele>254.89</ele>
        <time>2021-07-21T13:29:46Z</time>
      </trkpt>
      <trkpt lat="49.00594" lon="7.66524">
        <ele>253.93</ele>
        <time>2021-07-21T13:29:56Z</time>
      </trkpt>
      <trkpt lat="49.00468" lon="7.66513">
        <ele>256.33</ele>
        <time>2021-07-21T13:30:05Z</time>
      </trkpt>
      <trkpt lat="49.00455" lon="7.66513">
        <ele>256.33</ele>
        <time>2021-07-21T13:30:06Z</time>
      </trkpt>
      <trkpt lat="49.00385" lon="7.66493">
        <ele>256.33</ele>
        <time>2021-07-21T13:30:12Z</time>
      </trkpt>
      <trkpt lat="49.00269" lon="7.66472">
        <ele>255.37</ele>
        <time>2021-07-21T13:30:23Z</time>
      </trkpt>
      <trkpt lat="49.00186" lon="7.66424">
        <ele>250.56</ele>
        <time>2021-07-21T13:30:32Z</time>
      </trkpt>
      <trkpt lat="49.00129" lon="7.6635">
        <ele>245.75</ele>
        <time>2021-07-21T13:30:39Z</time>
      </trkpt>
      <trkpt lat="49.00082" lon="7.66298">
        <ele>243.83</ele>
        <time>2021-07-21T13:30:47Z</time>
      </trkpt>
      <trkpt lat="48.9996" lon="7.6622">
        <ele>242.87</ele>
        <time>2021-07-21T13:31:02Z</time>
      </trkpt>
      <trkpt lat="48.99862" lon="7.66126">
        <ele>237.58</ele>
        <time>2021-07-21T13:31:13Z</time>
      </trkpt>
      <trkpt lat="48.99853" lon="7.66122">
        <ele>237.1</ele>
        <time>2021-07-21T13:31:14Z</time>
      </trkpt>
      <trkpt lat="48.99844" lon="7.66119">
        <ele>236.14</ele>
        <time>2021-07-21T13:31:15Z</time>
      </trkpt>
      <trkpt lat="48.99835" lon="7.66116">
        <ele>235.66</ele>
        <time>2021-07-21T13:31:16Z</time>
      </trkpt>
      <trkpt lat="48.99825" lon="7.66115">
        <ele>235.66</ele>
        <time>2021-07-21T13:31:17Z</time>
      </trkpt>
      <trkpt lat="48.99793" lon="7.66112">
        <ele>233.74</ele>
        <time>2021-07-21T13:31:20Z</time>
      </trkpt>
      <trkpt lat="48.99782" lon="7.66112">
        <ele>233.74</ele>
        <time>2021-07-21T13:31:21Z</time>
      </trkpt>
      <trkpt lat="48.99632" lon="7.66052">
        <ele>231.81</ele>
        <time>2021-07-21T13:31:34Z</time>
      </trkpt>
      <trkpt lat="48.99515" lon="7.66013">
        <ele>228.93</ele>
        <time>2021-07-21T13:31:45Z</time>
      </trkpt>
      <trkpt lat="48.99505" lon="7.66012">
        <ele>228.45</ele>
        <time>2021-07-21T13:31:46Z</time>
      </trkpt>
      <trkpt lat="48.99494" lon="7.66011">
        <ele>227.97</ele>
        <time>2021-07-21T13:31:47Z</time>
      </trkpt>
      <trkpt lat="48.99484" lon="7.66013">
        <ele>227.49</ele>
        <time>2021-07-21T13:31:48Z</time>
      </trkpt>
      <trkpt lat="48.99473" lon="7.66016">
        <ele>227.01</ele>
        <time>2021-07-21T13:31:49Z</time>
      </trkpt>
      <trkpt lat="48.99432" lon="7.66033">
        <ele>226.05</ele>
        <time>2021-07-21T13:31:52Z</time>
      </trkpt>
      <trkpt lat="48.99423" lon="7.66041">
        <ele>226.05</ele>
        <time>2021-07-21T13:31:53Z</time>
      </trkpt>
      <trkpt lat="48.99321" lon="7.6614">
        <ele>225.57</ele>
        <time>2021-07-21T13:32:05Z</time>
      </trkpt>
      <trkpt lat="48.99262" lon="7.66225">
        <ele>226.05</ele>
        <time>2021-07-21T13:32:15Z</time>
      </trkpt>
      <trkpt lat="48.99248" lon="7.66264">
        <ele>225.57</ele>
        <time>2021-07-21T13:32:18Z</time>
      </trkpt>
      <trkpt lat="48.99203" lon="7.66437">
        <ele>225.57</ele>
        <time>2021-07-21T13:32:28Z</time>
      </trkpt>
      <trkpt lat="48.99171" lon="7.66674">
        <ele>224.12</ele>
        <time>2021-07-21T13:32:40Z</time>
      </trkpt>
      <trkpt lat="48.99157" lon="7.66879">
        <ele>227.01</ele>
        <time>2021-07-21T13:32:51Z</time>
      </trkpt>
      <trkpt lat="48.99161" lon="7.67145">
        <ele>226.53</ele>
        <time>2021-07-21T13:33:04Z</time>
      </trkpt>
      <trkpt lat="48.9916" lon="7.6722">
        <ele>226.53</ele>
        <time>2021-07-21T13:33:08Z</time>
      </trkpt>
      <trkpt lat="48.99157" lon="7.67238">
        <ele>226.53</ele>
        <time>2021-07-21T13:33:09Z</time>
      </trkpt>
      <trkpt lat="48.99154" lon="7.67257">
        <ele>226.53</ele>
        <time>2021-07-21T13:33:10Z</time>
      </trkpt>
      <trkpt lat="48.99141" lon="7.67314">
        <ele>225.09</ele>
        <time>2021-07-21T13:33:13Z</time>
      </trkpt>
      <trkpt lat="48.99134" lon="7.67332">
        <ele>224.61</ele>
        <time>2021-07-21T13:33:14Z</time>
      </trkpt>
      <trkpt lat="48.99126" lon="7.67348">
        <ele>224.61</ele>
        <time>2021-07-21T13:33:15Z</time>
      </trkpt>
      <trkpt lat="48.99116" lon="7.67363">
        <ele>224.12</ele>
        <time>2021-07-21T13:33:16Z</time>
      </trkpt>
      <trkpt lat="48.99095" lon="7.67389">
        <ele>223.64</ele>
        <time>2021-07-21T13:33:17Z</time>
      </trkpt>
      <trkpt lat="48.99095" lon="7.67389">
        <ele>223.16</ele>
        <time>2021-07-21T13:33:18Z</time>
      </trkpt>
      <trkpt lat="48.99072" lon="7.67411">
        <ele>224.12</ele>
        <time>2021-07-21T13:33:19Z</time>
      </trkpt>
      <trkpt lat="48.99058" lon="7.67418">
        <ele>224.12</ele>
        <time>2021-07-21T13:33:20Z</time>
      </trkpt>
      <trkpt lat="48.99046" lon="7.67422">
        <ele>224.12</ele>
        <time>2021-07-21T13:33:21Z</time>
      </trkpt>
      <trkpt lat="48.99032" lon="7.67424">
        <ele>224.61</ele>
        <time>2021-07-21T13:33:22Z</time>
      </trkpt>
      <trkpt lat="48.9902" lon="7.67426">
        <ele>224.61</ele>
        <time>2021-07-21T13:33:23Z</time>
      </trkpt>
      <trkpt lat="48.9901" lon="7.67428">
        <ele>224.61</ele>
        <time>2021-07-21T13:33:24Z</time>
      </trkpt>
      <trkpt lat="48.98992" lon="7.67434">
        <ele>224.61</ele>
        <time>2021-07-21T13:33:29Z</time>
      </trkpt>
      <trkpt lat="48.98988" lon="7.67428">
        <ele>221.24</ele>
        <time>2021-07-21T13:33:34Z</time>
      </trkpt>
      <trkpt lat="48.98989" lon="7.67425">
        <ele>220.76</ele>
        <time>2021-07-21T13:33:35Z</time>
      </trkpt>
      <trkpt lat="48.99009" lon="7.67345">
        <ele>220.76</ele>
        <time>2021-07-21T13:33:44Z</time>
      </trkpt>
      <trkpt lat="48.99049" lon="7.67202">
        <ele>223.64</ele>
        <time>2021-07-21T13:33:55Z</time>
      </trkpt>
      <trkpt lat="48.99058" lon="7.67025">
        <ele>223.64</ele>
        <time>2021-07-21T13:34:05Z</time>
      </trkpt>
      <trkpt lat="48.99038" lon="7.66805">
        <ele>221.24</ele>
        <time>2021-07-21T13:34:16Z</time>
      </trkpt>
      <trkpt lat="48.99042" lon="7.6662">
        <ele>220.76</ele>
        <time>2021-07-21T13:34:24Z</time>
      </trkpt>
      <trkpt lat="48.9909" lon="7.66356">
        <ele>223.64</ele>
        <time>2021-07-21T13:34:35Z</time>
      </trkpt>
      <trkpt lat="48.99107" lon="7.66257">
        <ele>224.12</ele>
        <time>2021-07-21T13:34:39Z</time>
      </trkpt>
      <trkpt lat="48.99114" lon="7.66233">
        <ele>224.61</ele>
        <time>2021-07-21T13:34:40Z</time>
      </trkpt>
      <trkpt lat="48.99121" lon="7.66209">
        <ele>224.61</ele>
        <time>2021-07-21T13:34:41Z</time>
      </trkpt>
      <trkpt lat="48.99212" lon="7.65988">
        <ele>226.05</ele>
        <time>2021-07-21T13:34:51Z</time>
      </trkpt>
      <trkpt lat="48.99272" lon="7.65822">
        <ele>229.41</ele>
        <time>2021-07-21T13:34:59Z</time>
      </trkpt>
      <trkpt lat="48.99315" lon="7.65607">
        <ele>231.81</ele>
        <time>2021-07-21T13:35:08Z</time>
      </trkpt>
      <trkpt lat="48.99316" lon="7.65583">
        <ele>232.3</ele>
        <time>2021-07-21T13:35:09Z</time>
      </trkpt>
      <trkpt lat="48.99313" lon="7.65464">
        <ele>232.3</ele>
        <time>2021-07-21T13:35:14Z</time>
      </trkpt>
      <trkpt lat="48.99314" lon="7.6544">
        <ele>233.26</ele>
        <time>2021-07-21T13:35:15Z</time>
      </trkpt>
      <trkpt lat="48.99318" lon="7.65417">
        <ele>234.7</ele>
        <time>2021-07-21T13:35:16Z</time>
      </trkpt>
      <trkpt lat="48.99324" lon="7.65396">
        <ele>236.62</ele>
        <time>2021-07-21T13:35:17Z</time>
      </trkpt>
      <trkpt lat="48.99331" lon="7.65373">
        <ele>238.06</ele>
        <time>2021-07-21T13:35:18Z</time>
      </trkpt>
      <trkpt lat="48.99423" lon="7.65131">
        <ele>241.91</ele>
        <time>2021-07-21T13:35:29Z</time>
      </trkpt>
      <trkpt lat="48.99458" lon="7.65044">
        <ele>241.43</ele>
        <time>2021-07-21T13:35:33Z</time>
      </trkpt>
      <trkpt lat="48.99468" lon="7.65023">
        <ele>241.43</ele>
        <time>2021-07-21T13:35:34Z</time>
      </trkpt>
      <trkpt lat="48.99585" lon="7.64826">
        <ele>245.75</ele>
        <time>2021-07-21T13:35:44Z</time>
      </trkpt>
      <trkpt lat="48.99703" lon="7.64612">
        <ele>247.2</ele>
        <time>2021-07-21T13:35:54Z</time>
      </trkpt>
      <trkpt lat="48.99755" lon="7.64507">
        <ele>248.16</ele>
        <time>2021-07-21T13:35:59Z</time>
      </trkpt>
      <trkpt lat="48.99761" lon="7.6449">
        <ele>248.16</ele>
        <time>2021-07-21T13:36:00Z</time>
      </trkpt>
      <trkpt lat="48.99766" lon="7.64471">
        <ele>248.16</ele>
        <time>2021-07-21T13:36:01Z</time>
      </trkpt>
      <trkpt lat="48.99771" lon="7.64451">
        <ele>248.16</ele>
        <time>2021-07-21T13:36:02Z</time>
      </trkpt>
      <trkpt lat="48.99774" lon="7.64432">
        <ele>248.16</ele>
        <time>2021-07-21T13:36:03Z</time>
      </trkpt>
      <trkpt lat="48.99774" lon="7.6441">
        <ele>247.68</ele>
        <time>2021-07-21T13:36:04Z</time>
      </trkpt>
      <trkpt lat="48.99775" lon="7.64389">
        <ele>247.2</ele>
        <time>2021-07-21T13:36:05Z</time>
      </trkpt>
      <trkpt lat="48.99775" lon="7.64348">
        <ele>246.72</ele>
        <time>2021-07-21T13:36:07Z</time>
      </trkpt>
      <trkpt lat="48.99776" lon="7.64328">
        <ele>245.75</ele>
        <time>2021-07-21T13:36:08Z</time>
      </trkpt>
      <trkpt lat="48.99779" lon="7.64307">
        <ele>247.2</ele>
        <time>2021-07-21T13:36:09Z</time>
      </trkpt>
      <trkpt lat="48.99784" lon="7.64289">
        <ele>247.68</ele>
        <time>2021-07-21T13:36:10Z</time>
      </trkpt>
      <trkpt lat="48.99794" lon="7.64274">
        <ele>248.16</ele>
        <time>2021-07-21T13:36:11Z</time>
      </trkpt>
      <trkpt lat="48.99803" lon="7.64258">
        <ele>248.16</ele>
        <time>2021-07-21T13:36:12Z</time>
      </trkpt>
      <trkpt lat="48.99813" lon="7.64241">
        <ele>248.64</ele>
        <time>2021-07-21T13:36:13Z</time>
      </trkpt>
      <trkpt lat="48.99821" lon="7.64223">
        <ele>248.16</ele>
        <time>2021-07-21T13:36:14Z</time>
      </trkpt>
      <trkpt lat="48.99829" lon="7.64205">
        <ele>248.16</ele>
        <time>2021-07-21T13:36:15Z</time>
      </trkpt>
      <trkpt lat="48.99876" lon="7.64034">
        <ele>247.2</ele>
        <time>2021-07-21T13:36:23Z</time>
      </trkpt>
      <trkpt lat="48.9988" lon="7.64012">
        <ele>246.72</ele>
        <time>2021-07-21T13:36:24Z</time>
      </trkpt>
      <trkpt lat="48.99883" lon="7.6399">
        <ele>245.75</ele>
        <time>2021-07-21T13:36:25Z</time>
      </trkpt>
      <trkpt lat="48.99883" lon="7.63967">
        <ele>244.31</ele>
        <time>2021-07-21T13:36:26Z</time>
      </trkpt>
      <trkpt lat="48.99882" lon="7.63872">
        <ele>242.39</ele>
        <time>2021-07-21T13:36:30Z</time>
      </trkpt>
      <trkpt lat="48.99883" lon="7.63848">
        <ele>242.39</ele>
        <time>2021-07-21T13:36:31Z</time>
      </trkpt>
      <trkpt lat="48.99888" lon="7.6383">
        <ele>242.39</ele>
        <time>2021-07-21T13:36:32Z</time>
      </trkpt>
      <trkpt lat="48.999" lon="7.6379">
        <ele>242.39</ele>
        <time>2021-07-21T13:36:33Z</time>
      </trkpt>
      <trkpt lat="48.999" lon="7.6379">
        <ele>241.91</ele>
        <time>2021-07-21T13:36:34Z</time>
      </trkpt>
      <trkpt lat="48.99909" lon="7.63771">
        <ele>241.91</ele>
        <time>2021-07-21T13:36:35Z</time>
      </trkpt>
      <trkpt lat="48.99935" lon="7.63709">
        <ele>241.43</ele>
        <time>2021-07-21T13:36:38Z</time>
      </trkpt>
      <trkpt lat="49.00012" lon="7.63494">
        <ele>240.95</ele>
        <time>2021-07-21T13:36:46Z</time>
      </trkpt>
      <trkpt lat="49.00021" lon="7.63478">
        <ele>240.95</ele>
        <time>2021-07-21T13:36:47Z</time>
      </trkpt>
      <trkpt lat="49.00029" lon="7.63464">
        <ele>240.95</ele>
        <time>2021-07-21T13:36:48Z</time>
      </trkpt>
      <trkpt lat="49.00089" lon="7.63385">
        <ele>238.54</ele>
        <time>2021-07-21T13:36:56Z</time>
      </trkpt>
      <trkpt lat="49.0017" lon="7.63296">
        <ele>235.66</ele>
        <time>2021-07-21T13:37:09Z</time>
      </trkpt>
      <trkpt lat="49.00207" lon="7.63258">
        <ele>234.7</ele>
        <time>2021-07-21T13:37:16Z</time>
      </trkpt>
      <trkpt lat="49.00262" lon="7.63177">
        <ele>237.58</ele>
        <time>2021-07-21T13:37:30Z</time>
      </trkpt>
      <trkpt lat="49.00307" lon="7.63122">
        <ele>235.66</ele>
        <time>2021-07-21T13:37:44Z</time>
      </trkpt>
      <trkpt lat="49.00362" lon="7.63069">
        <ele>234.22</ele>
        <time>2021-07-21T13:37:56Z</time>
      </trkpt>
      <trkpt lat="49.00367" lon="7.63062">
        <ele>234.22</ele>
        <time>2021-07-21T13:37:57Z</time>
      </trkpt>
      <trkpt lat="49.00372" lon="7.63054">
        <ele>234.22</ele>
        <time>2021-07-21T13:37:58Z</time>
      </trkpt>
      <trkpt lat="49.00376" lon="7.63047">
        <ele>234.22</ele>
        <time>2021-07-21T13:37:59Z</time>
      </trkpt>
      <trkpt lat="49.00432" lon="7.62923">
        <ele>235.18</ele>
        <time>2021-07-21T13:38:12Z</time>
      </trkpt>
      <trkpt lat="49.00495" lon="7.62853">
        <ele>235.18</ele>
        <time>2021-07-21T13:38:21Z</time>
      </trkpt>
      <trkpt lat="49.00501" lon="7.62842">
        <ele>235.18</ele>
        <time>2021-07-21T13:38:22Z</time>
      </trkpt>
      <trkpt lat="49.00508" lon="7.62831">
        <ele>235.18</ele>
        <time>2021-07-21T13:38:23Z</time>
      </trkpt>
      <trkpt lat="49.00552" lon="7.62769">
        <ele>235.66</ele>
        <time>2021-07-21T13:38:28Z</time>
      </trkpt>
      <trkpt lat="49.00552" lon="7.62769">
        <ele>234.7</ele>
        <time>2021-07-21T13:38:29Z</time>
      </trkpt>
      <trkpt lat="49.0056" lon="7.62762">
        <ele>235.18</ele>
        <time>2021-07-21T13:38:30Z</time>
      </trkpt>
      <trkpt lat="49.0057" lon="7.62755">
        <ele>235.66</ele>
        <time>2021-07-21T13:38:31Z</time>
      </trkpt>
      <trkpt lat="49.00578" lon="7.62749">
        <ele>236.14</ele>
        <time>2021-07-21T13:38:32Z</time>
      </trkpt>
      <trkpt lat="49.00662" lon="7.62731">
        <ele>235.18</ele>
        <time>2021-07-21T13:38:40Z</time>
      </trkpt>
      <trkpt lat="49.00702" lon="7.6273">
        <ele>234.22</ele>
        <time>2021-07-21T13:38:44Z</time>
      </trkpt>
      <trkpt lat="49.00712" lon="7.62727">
        <ele>234.22</ele>
        <time>2021-07-21T13:38:45Z</time>
      </trkpt>
      <trkpt lat="49.00853" lon="7.62648">
        <ele>237.58</ele>
        <time>2021-07-21T13:38:58Z</time>
      </trkpt>
      <trkpt lat="49.01032" lon="7.62544">
        <ele>234.22</ele>
        <time>2021-07-21T13:39:16Z</time>
      </trkpt>
      <trkpt lat="49.01081" lon="7.62521">
        <ele>235.18</ele>
        <time>2021-07-21T13:39:20Z</time>
      </trkpt>
      <trkpt lat="49.01092" lon="7.62515">
        <ele>236.14</ele>
        <time>2021-07-21T13:39:21Z</time>
      </trkpt>
      <trkpt lat="49.01101" lon="7.62503">
        <ele>236.62</ele>
        <time>2021-07-21T13:39:22Z</time>
      </trkpt>
      <trkpt lat="49.01203" lon="7.62389">
        <ele>237.1</ele>
        <time>2021-07-21T13:39:32Z</time>
      </trkpt>
      <trkpt lat="49.01321" lon="7.62257">
        <ele>235.18</ele>
        <time>2021-07-21T13:39:42Z</time>
      </trkpt>
      <trkpt lat="49.01407" lon="7.62179">
        <ele>238.06</ele>
        <time>2021-07-21T13:39:51Z</time>
      </trkpt>
      <trkpt lat="49.01491" lon="7.62101">
        <ele>238.06</ele>
        <time>2021-07-21T13:40:01Z</time>
      </trkpt>
      <trkpt lat="49.015" lon="7.62084">
        <ele>238.54</ele>
        <time>2021-07-21T13:40:02Z</time>
      </trkpt>
      <trkpt lat="49.01505" lon="7.62074">
        <ele>238.54</ele>
        <time>2021-07-21T13:40:03Z</time>
      </trkpt>
      <trkpt lat="49.01531" lon="7.61995">
        <ele>238.06</ele>
        <time>2021-07-21T13:40:11Z</time>
      </trkpt>
      <trkpt lat="49.01533" lon="7.61982">
        <ele>238.06</ele>
        <time>2021-07-21T13:40:12Z</time>
      </trkpt>
      <trkpt lat="49.01534" lon="7.61969">
        <ele>238.06</ele>
        <time>2021-07-21T13:40:13Z</time>
      </trkpt>
      <trkpt lat="49.01535" lon="7.61957">
        <ele>238.06</ele>
        <time>2021-07-21T13:40:14Z</time>
      </trkpt>
      <trkpt lat="49.01535" lon="7.61943">
        <ele>238.06</ele>
        <time>2021-07-21T13:40:15Z</time>
      </trkpt>
      <trkpt lat="49.01534" lon="7.61929">
        <ele>237.58</ele>
        <time>2021-07-21T13:40:16Z</time>
      </trkpt>
      <trkpt lat="49.01533" lon="7.61915">
        <ele>237.58</ele>
        <time>2021-07-21T13:40:17Z</time>
      </trkpt>
      <trkpt lat="49.0153" lon="7.61903">
        <ele>237.1</ele>
        <time>2021-07-21T13:40:18Z</time>
      </trkpt>
      <trkpt lat="49.01526" lon="7.61888">
        <ele>237.1</ele>
        <time>2021-07-21T13:40:19Z</time>
      </trkpt>
      <trkpt lat="49.01522" lon="7.61874">
        <ele>237.1</ele>
        <time>2021-07-21T13:40:20Z</time>
      </trkpt>
      <trkpt lat="49.01518" lon="7.6186">
        <ele>237.1</ele>
        <time>2021-07-21T13:40:21Z</time>
      </trkpt>
      <trkpt lat="49.01445" lon="7.61653">
        <ele>239.51</ele>
        <time>2021-07-21T13:40:34Z</time>
      </trkpt>
      <trkpt lat="49.0138" lon="7.6147">
        <ele>241.43</ele>
        <time>2021-07-21T13:40:44Z</time>
      </trkpt>
      <trkpt lat="49.01275" lon="7.61209">
        <ele>246.23</ele>
        <time>2021-07-21T13:40:57Z</time>
      </trkpt>
      <trkpt lat="49.01213" lon="7.61067">
        <ele>246.23</ele>
        <time>2021-07-21T13:41:06Z</time>
      </trkpt>
      <trkpt lat="49.0117" lon="7.60937">
        <ele>245.27</ele>
        <time>2021-07-21T13:41:16Z</time>
      </trkpt>
      <trkpt lat="49.01163" lon="7.60901">
        <ele>243.83</ele>
        <time>2021-07-21T13:41:18Z</time>
      </trkpt>
      <trkpt lat="49.01125" lon="7.60672">
        <ele>241.43</ele>
        <time>2021-07-21T13:41:28Z</time>
      </trkpt>
      <trkpt lat="49.01119" lon="7.60651">
        <ele>241.43</ele>
        <time>2021-07-21T13:41:29Z</time>
      </trkpt>
      <trkpt lat="49.01112" lon="7.60631">
        <ele>241.43</ele>
        <time>2021-07-21T13:41:30Z</time>
      </trkpt>
      <trkpt lat="49.01026" lon="7.60437">
        <ele>241.91</ele>
        <time>2021-07-21T13:41:40Z</time>
      </trkpt>
      <trkpt lat="49.00908" lon="7.60211">
        <ele>244.31</ele>
        <time>2021-07-21T13:41:53Z</time>
      </trkpt>
      <trkpt lat="49.00826" lon="7.60063">
        <ele>245.75</ele>
        <time>2021-07-21T13:42:02Z</time>
      </trkpt>
      <trkpt lat="49.00759" lon="7.59915">
        <ele>248.64</ele>
        <time>2021-07-21T13:42:11Z</time>
      </trkpt>
      <trkpt lat="49.00653" lon="7.59664">
        <ele>252.96</ele>
        <time>2021-07-21T13:42:25Z</time>
      </trkpt>
      <trkpt lat="49.00571" lon="7.59501">
        <ele>253.93</ele>
        <time>2021-07-21T13:42:35Z</time>
      </trkpt>
      <trkpt lat="49.00445" lon="7.59285">
        <ele>257.29</ele>
        <time>2021-07-21T13:42:47Z</time>
      </trkpt>
      <trkpt lat="49.00319" lon="7.59074">
        <ele>264.5</ele>
        <time>2021-07-21T13:42:59Z</time>
      </trkpt>
      <trkpt lat="49.00242" lon="7.58933">
        <ele>269.31</ele>
        <time>2021-07-21T13:43:07Z</time>
      </trkpt>
      <trkpt lat="49.00175" lon="7.5878">
        <ele>269.31</ele>
        <time>2021-07-21T13:43:15Z</time>
      </trkpt>
      <trkpt lat="49.00056" lon="7.58518">
        <ele>262.1</ele>
        <time>2021-07-21T13:43:28Z</time>
      </trkpt>
      <trkpt lat="48.99941" lon="7.58335">
        <ele>256.81</ele>
        <time>2021-07-21T13:43:39Z</time>
      </trkpt>
      <trkpt lat="48.99812" lon="7.58158">
        <ele>253.93</ele>
        <time>2021-07-21T13:43:49Z</time>
      </trkpt>
      <trkpt lat="48.99674" lon="7.57978">
        <ele>246.72</ele>
        <time>2021-07-21T13:44:01Z</time>
      </trkpt>
      <trkpt lat="48.99557" lon="7.57806">
        <ele>240.47</ele>
        <time>2021-07-21T13:44:10Z</time>
      </trkpt>
      <trkpt lat="48.99433" lon="7.57602">
        <ele>234.22</ele>
        <time>2021-07-21T13:44:21Z</time>
      </trkpt>
      <trkpt lat="48.99391" lon="7.5754">
        <ele>233.26</ele>
        <time>2021-07-21T13:44:25Z</time>
      </trkpt>
      <trkpt lat="48.99375" lon="7.57524">
        <ele>233.74</ele>
        <time>2021-07-21T13:44:26Z</time>
      </trkpt>
      <trkpt lat="48.99375" lon="7.57524">
        <ele>233.26</ele>
        <time>2021-07-21T13:44:27Z</time>
      </trkpt>
      <trkpt lat="48.99368" lon="7.57521">
        <ele>233.26</ele>
        <time>2021-07-21T13:44:28Z</time>
      </trkpt>
      <trkpt lat="48.99362" lon="7.57517">
        <ele>233.26</ele>
        <time>2021-07-21T13:44:29Z</time>
      </trkpt>
      <trkpt lat="48.99349" lon="7.57517">
        <ele>232.78</ele>
        <time>2021-07-21T13:44:30Z</time>
      </trkpt>
      <trkpt lat="48.99339" lon="7.57519">
        <ele>232.3</ele>
        <time>2021-07-21T13:44:31Z</time>
      </trkpt>
      <trkpt lat="48.99339" lon="7.57519">
        <ele>231.81</ele>
        <time>2021-07-21T13:44:32Z</time>
      </trkpt>
      <trkpt lat="48.9932" lon="7.57526">
        <ele>231.33</ele>
        <time>2021-07-21T13:44:33Z</time>
      </trkpt>
      <trkpt lat="48.9932" lon="7.57526">
        <ele>230.85</ele>
        <time>2021-07-21T13:44:34Z</time>
      </trkpt>
      <trkpt lat="48.99309" lon="7.57535">
        <ele>230.85</ele>
        <time>2021-07-21T13:44:35Z</time>
      </trkpt>
      <trkpt lat="48.99204" lon="7.57609">
        <ele>231.33</ele>
        <time>2021-07-21T13:44:44Z</time>
      </trkpt>
      <trkpt lat="48.99182" lon="7.57618">
        <ele>231.33</ele>
        <time>2021-07-21T13:44:46Z</time>
      </trkpt>
      <trkpt lat="48.99172" lon="7.57618">
        <ele>231.33</ele>
        <time>2021-07-21T13:44:47Z</time>
      </trkpt>
      <trkpt lat="48.99163" lon="7.57617">
        <ele>230.37</ele>
        <time>2021-07-21T13:44:48Z</time>
      </trkpt>
      <trkpt lat="48.99155" lon="7.57614">
        <ele>230.37</ele>
        <time>2021-07-21T13:44:49Z</time>
      </trkpt>
      <trkpt lat="48.99147" lon="7.57606">
        <ele>229.89</ele>
        <time>2021-07-21T13:44:50Z</time>
      </trkpt>
      <trkpt lat="48.99138" lon="7.57596">
        <ele>229.89</ele>
        <time>2021-07-21T13:44:51Z</time>
      </trkpt>
      <trkpt lat="48.99045" lon="7.57495">
        <ele>228.93</ele>
        <time>2021-07-21T13:45:03Z</time>
      </trkpt>
      <trkpt lat="48.9903" lon="7.57479">
        <ele>228.93</ele>
        <time>2021-07-21T13:45:05Z</time>
      </trkpt>
      <trkpt lat="48.99022" lon="7.57475">
        <ele>228.45</ele>
        <time>2021-07-21T13:45:06Z</time>
      </trkpt>
      <trkpt lat="48.98933" lon="7.57427">
        <ele>227.01</ele>
        <time>2021-07-21T13:45:17Z</time>
      </trkpt>
      <trkpt lat="48.98924" lon="7.57419">
        <ele>227.01</ele>
        <time>2021-07-21T13:45:18Z</time>
      </trkpt>
      <trkpt lat="48.98817" lon="7.57326">
        <ele>227.49</ele>
        <time>2021-07-21T13:45:29Z</time>
      </trkpt>
      <trkpt lat="48.98796" lon="7.57308">
        <ele>227.01</ele>
        <time>2021-07-21T13:45:31Z</time>
      </trkpt>
      <trkpt lat="48.98786" lon="7.57296">
        <ele>227.01</ele>
        <time>2021-07-21T13:45:32Z</time>
      </trkpt>
      <trkpt lat="48.9877" lon="7.5727">
        <ele>227.49</ele>
        <time>2021-07-21T13:45:33Z</time>
      </trkpt>
      <trkpt lat="48.98744" lon="7.57208">
        <ele>227.01</ele>
        <time>2021-07-21T13:45:38Z</time>
      </trkpt>
      <trkpt lat="48.98639" lon="7.57048">
        <ele>226.53</ele>
        <time>2021-07-21T13:45:52Z</time>
      </trkpt>
      <trkpt lat="48.98563" lon="7.56916">
        <ele>223.16</ele>
        <time>2021-07-21T13:46:02Z</time>
      </trkpt>
      <trkpt lat="48.98483" lon="7.5678">
        <ele>221.72</ele>
        <time>2021-07-21T13:46:14Z</time>
      </trkpt>
      <trkpt lat="48.98469" lon="7.56766">
        <ele>222.2</ele>
        <time>2021-07-21T13:46:15Z</time>
      </trkpt>
      <trkpt lat="48.98462" lon="7.56762">
        <ele>222.2</ele>
        <time>2021-07-21T13:46:16Z</time>
      </trkpt>
      <trkpt lat="48.98462" lon="7.56762">
        <ele>222.68</ele>
        <time>2021-07-21T13:46:17Z</time>
      </trkpt>
      <trkpt lat="48.98455" lon="7.56759">
        <ele>222.2</ele>
        <time>2021-07-21T13:46:18Z</time>
      </trkpt>
      <trkpt lat="48.98449" lon="7.56756">
        <ele>222.2</ele>
        <time>2021-07-21T13:46:19Z</time>
      </trkpt>
      <trkpt lat="48.98441" lon="7.56751">
        <ele>221.24</ele>
        <time>2021-07-21T13:46:22Z</time>
      </trkpt>
      <trkpt lat="48.98439" lon="7.56749">
        <ele>221.24</ele>
        <time>2021-07-21T13:46:23Z</time>
      </trkpt>
      <trkpt lat="48.98438" lon="7.56748">
        <ele>221.24</ele>
        <time>2021-07-21T13:46:24Z</time>
      </trkpt>
      <trkpt lat="48.98435" lon="7.56731">
        <ele>221.24</ele>
        <time>2021-07-21T13:46:30Z</time>
      </trkpt>
      <trkpt lat="48.98435" lon="7.56731">
        <ele>221.24</ele>
        <time>2021-07-21T13:46:31Z</time>
      </trkpt>
      <trkpt lat="48.98438" lon="7.56729">
        <ele>221.24</ele>
        <time>2021-07-21T13:46:32Z</time>
      </trkpt>
      <trkpt lat="48.98442" lon="7.56726">
        <ele>221.24</ele>
        <time>2021-07-21T13:46:33Z</time>
      </trkpt>
      <trkpt lat="48.98446" lon="7.56722">
        <ele>221.24</ele>
        <time>2021-07-21T13:46:34Z</time>
      </trkpt>
      <trkpt lat="48.98451" lon="7.56718">
        <ele>221.24</ele>
        <time>2021-07-21T13:46:35Z</time>
      </trkpt>
      <trkpt lat="48.98532" lon="7.56656">
        <ele>220.28</ele>
        <time>2021-07-21T13:46:46Z</time>
      </trkpt>
      <trkpt lat="48.9863" lon="7.56581">
        <ele>223.16</ele>
        <time>2021-07-21T13:47:00Z</time>
      </trkpt>
      <trkpt lat="48.98724" lon="7.56531">
        <ele>221.72</ele>
        <time>2021-07-21T13:47:09Z</time>
      </trkpt>
      <trkpt lat="48.98844" lon="7.56489">
        <ele>222.68</ele>
        <time>2021-07-21T13:47:17Z</time>
      </trkpt>
      <trkpt lat="48.98844" lon="7.56489">
        <ele>223.64</ele>
        <time>2021-07-21T13:47:18Z</time>
      </trkpt>
      <trkpt lat="48.98858" lon="7.56473">
        <ele>223.16</ele>
        <time>2021-07-21T13:47:19Z</time>
      </trkpt>
      <trkpt lat="48.98979" lon="7.56262">
        <ele>223.64</ele>
        <time>2021-07-21T13:47:31Z</time>
      </trkpt>
      <trkpt lat="48.99008" lon="7.56213">
        <ele>223.64</ele>
        <time>2021-07-21T13:47:34Z</time>
      </trkpt>
      <trkpt lat="48.99016" lon="7.56193">
        <ele>224.12</ele>
        <time>2021-07-21T13:47:35Z</time>
      </trkpt>
      <trkpt lat="48.99023" lon="7.56172">
        <ele>223.64</ele>
        <time>2021-07-21T13:47:36Z</time>
      </trkpt>
      <trkpt lat="48.99027" lon="7.56152">
        <ele>223.16</ele>
        <time>2021-07-21T13:47:37Z</time>
      </trkpt>
      <trkpt lat="48.99031" lon="7.56128">
        <ele>222.68</ele>
        <time>2021-07-21T13:47:38Z</time>
      </trkpt>
      <trkpt lat="48.99035" lon="7.56104">
        <ele>222.68</ele>
        <time>2021-07-21T13:47:39Z</time>
      </trkpt>
      <trkpt lat="48.99057" lon="7.55957">
        <ele>221.24</ele>
        <time>2021-07-21T13:47:45Z</time>
      </trkpt>
      <trkpt lat="48.99064" lon="7.55935">
        <ele>220.76</ele>
        <time>2021-07-21T13:47:46Z</time>
      </trkpt>
      <trkpt lat="48.9907" lon="7.55913">
        <ele>220.76</ele>
        <time>2021-07-21T13:47:47Z</time>
      </trkpt>
      <trkpt lat="48.9908" lon="7.55895">
        <ele>221.24</ele>
        <time>2021-07-21T13:47:48Z</time>
      </trkpt>
      <trkpt lat="48.99091" lon="7.55878">
        <ele>221.72</ele>
        <time>2021-07-21T13:47:49Z</time>
      </trkpt>
      <trkpt lat="48.99117" lon="7.55849">
        <ele>221.72</ele>
        <time>2021-07-21T13:47:50Z</time>
      </trkpt>
      <trkpt lat="48.9927" lon="7.55641">
        <ele>223.64</ele>
        <time>2021-07-21T13:48:03Z</time>
      </trkpt>
      <trkpt lat="48.99357" lon="7.55473">
        <ele>223.16</ele>
        <time>2021-07-21T13:48:11Z</time>
      </trkpt>
      <trkpt lat="48.99365" lon="7.55449">
        <ele>222.68</ele>
        <time>2021-07-21T13:48:12Z</time>
      </trkpt>
      <trkpt lat="48.99372" lon="7.55424">
        <ele>222.2</ele>
        <time>2021-07-21T13:48:13Z</time>
      </trkpt>
      <trkpt lat="48.99377" lon="7.55398">
        <ele>222.2</ele>
        <time>2021-07-21T13:48:14Z</time>
      </trkpt>
      <trkpt lat="48.99396" lon="7.55266">
        <ele>220.76</ele>
        <time>2021-07-21T13:48:19Z</time>
      </trkpt>
      <trkpt lat="48.99402" lon="7.55241">
        <ele>220.76</ele>
        <time>2021-07-21T13:48:20Z</time>
      </trkpt>
      <trkpt lat="48.99426" lon="7.55169">
        <ele>220.76</ele>
        <time>2021-07-21T13:48:23Z</time>
      </trkpt>
      <trkpt lat="48.99438" lon="7.55149">
        <ele>221.24</ele>
        <time>2021-07-21T13:48:24Z</time>
      </trkpt>
      <trkpt lat="48.99547" lon="7.54949">
        <ele>221.24</ele>
        <time>2021-07-21T13:48:33Z</time>
      </trkpt>
      <trkpt lat="48.99598" lon="7.54753">
        <ele>219.8</ele>
        <time>2021-07-21T13:48:40Z</time>
      </trkpt>
      <trkpt lat="48.99679" lon="7.54355">
        <ele>220.28</ele>
        <time>2021-07-21T13:48:54Z</time>
      </trkpt>
      <trkpt lat="48.99696" lon="7.54222">
        <ele>220.76</ele>
        <time>2021-07-21T13:48:58Z</time>
      </trkpt>
      <trkpt lat="48.99696" lon="7.54222">
        <ele>221.24</ele>
        <time>2021-07-21T13:48:59Z</time>
      </trkpt>
      <trkpt lat="48.99699" lon="7.54026">
        <ele>223.16</ele>
        <time>2021-07-21T13:49:06Z</time>
      </trkpt>
      <trkpt lat="48.99709" lon="7.53974">
        <ele>223.16</ele>
        <time>2021-07-21T13:49:07Z</time>
      </trkpt>
      <trkpt lat="48.99709" lon="7.53974">
        <ele>223.64</ele>
        <time>2021-07-21T13:49:08Z</time>
      </trkpt>
      <trkpt lat="48.99733" lon="7.53876">
        <ele>223.64</ele>
        <time>2021-07-21T13:49:12Z</time>
      </trkpt>
      <trkpt lat="48.99739" lon="7.53853">
        <ele>224.61</ele>
        <time>2021-07-21T13:49:13Z</time>
      </trkpt>
      <trkpt lat="48.99748" lon="7.53762">
        <ele>224.61</ele>
        <time>2021-07-21T13:49:19Z</time>
      </trkpt>
      <trkpt lat="48.99749" lon="7.53755">
        <ele>225.09</ele>
        <time>2021-07-21T13:49:31Z</time>
      </trkpt>
      <trkpt lat="48.99749" lon="7.53725">
        <ele>225.09</ele>
        <time>2021-07-21T13:50:12Z</time>
      </trkpt>
      <trkpt lat="48.9975" lon="7.53629">
        <ele>225.09</ele>
        <time>2021-07-21T13:50:20Z</time>
      </trkpt>
      <trkpt lat="48.99752" lon="7.53373">
        <ele>225.57</ele>
        <time>2021-07-21T13:50:33Z</time>
      </trkpt>
      <trkpt lat="48.99757" lon="7.53127">
        <ele>227.01</ele>
        <time>2021-07-21T13:50:44Z</time>
      </trkpt>
      <trkpt lat="48.99751" lon="7.52861">
        <ele>228.93</ele>
        <time>2021-07-21T13:50:54Z</time>
      </trkpt>
      <trkpt lat="48.99713" lon="7.52604">
        <ele>227.49</ele>
        <time>2021-07-21T13:51:03Z</time>
      </trkpt>
      <trkpt lat="48.99641" lon="7.52236">
        <ele>226.05</ele>
        <time>2021-07-21T13:51:15Z</time>
      </trkpt>
      <trkpt lat="48.99593" lon="7.5197">
        <ele>225.57</ele>
        <time>2021-07-21T13:51:24Z</time>
      </trkpt>
      <trkpt lat="48.99592" lon="7.5194">
        <ele>225.57</ele>
        <time>2021-07-21T13:51:25Z</time>
      </trkpt>
      <trkpt lat="48.99618" lon="7.51707">
        <ele>226.05</ele>
        <time>2021-07-21T13:51:33Z</time>
      </trkpt>
      <trkpt lat="48.99674" lon="7.51455">
        <ele>224.61</ele>
        <time>2021-07-21T13:51:42Z</time>
      </trkpt>
      <trkpt lat="48.99676" lon="7.51427">
        <ele>224.12</ele>
        <time>2021-07-21T13:51:43Z</time>
      </trkpt>
      <trkpt lat="48.99684" lon="7.51066">
        <ele>223.16</ele>
        <time>2021-07-21T13:51:56Z</time>
      </trkpt>
      <trkpt lat="48.9975" lon="7.508">
        <ele>228.45</ele>
        <time>2021-07-21T13:52:07Z</time>
      </trkpt>
      <trkpt lat="48.99849" lon="7.50657">
        <ele>234.22</ele>
        <time>2021-07-21T13:52:15Z</time>
      </trkpt>
      <trkpt lat="48.99902" lon="7.50596">
        <ele>235.66</ele>
        <time>2021-07-21T13:52:19Z</time>
      </trkpt>
      <trkpt lat="48.99915" lon="7.50583">
        <ele>236.14</ele>
        <time>2021-07-21T13:52:20Z</time>
      </trkpt>
      <trkpt lat="48.9993" lon="7.5057">
        <ele>237.1</ele>
        <time>2021-07-21T13:52:21Z</time>
      </trkpt>
      <trkpt lat="48.99945" lon="7.50558">
        <ele>237.1</ele>
        <time>2021-07-21T13:52:22Z</time>
      </trkpt>
      <trkpt lat="48.99963" lon="7.5055">
        <ele>237.1</ele>
        <time>2021-07-21T13:52:23Z</time>
      </trkpt>
      <trkpt lat="49.00011" lon="7.50535">
        <ele>237.58</ele>
        <time>2021-07-21T13:52:25Z</time>
      </trkpt>
      <trkpt lat="49.00011" lon="7.50535">
        <ele>237.1</ele>
        <time>2021-07-21T13:52:26Z</time>
      </trkpt>
      <trkpt lat="49.0004" lon="7.50534">
        <ele>238.06</ele>
        <time>2021-07-21T13:52:27Z</time>
      </trkpt>
      <trkpt lat="49.00199" lon="7.50547">
        <ele>239.51</ele>
        <time>2021-07-21T13:52:38Z</time>
      </trkpt>
      <trkpt lat="49.00227" lon="7.50541">
        <ele>240.95</ele>
        <time>2021-07-21T13:52:40Z</time>
      </trkpt>
      <trkpt lat="49.00239" lon="7.50534">
        <ele>240.95</ele>
        <time>2021-07-21T13:52:41Z</time>
      </trkpt>
      <trkpt lat="49.00252" lon="7.50524">
        <ele>241.43</ele>
        <time>2021-07-21T13:52:42Z</time>
      </trkpt>
      <trkpt lat="49.00267" lon="7.50513">
        <ele>242.87</ele>
        <time>2021-07-21T13:52:43Z</time>
      </trkpt>
      <trkpt lat="49.00279" lon="7.50501">
        <ele>242.87</ele>
        <time>2021-07-21T13:52:44Z</time>
      </trkpt>
      <trkpt lat="49.00291" lon="7.50485">
        <ele>241.91</ele>
        <time>2021-07-21T13:52:45Z</time>
      </trkpt>
      <trkpt lat="49.00427" lon="7.50334">
        <ele>239.99</ele>
        <time>2021-07-21T13:52:54Z</time>
      </trkpt>
      <trkpt lat="49.00652" lon="7.50112">
        <ele>240.95</ele>
        <time>2021-07-21T13:53:10Z</time>
      </trkpt>
      <trkpt lat="49.00666" lon="7.50095">
        <ele>240.95</ele>
        <time>2021-07-21T13:53:11Z</time>
      </trkpt>
      <trkpt lat="49.00677" lon="7.50078">
        <ele>241.91</ele>
        <time>2021-07-21T13:53:12Z</time>
      </trkpt>
      <trkpt lat="49.00686" lon="7.50056">
        <ele>241.91</ele>
        <time>2021-07-21T13:53:13Z</time>
      </trkpt>
      <trkpt lat="49.00724" lon="7.49967">
        <ele>241.43</ele>
        <time>2021-07-21T13:53:17Z</time>
      </trkpt>
      <trkpt lat="49.00735" lon="7.49947">
        <ele>240.95</ele>
        <time>2021-07-21T13:53:18Z</time>
      </trkpt>
      <trkpt lat="49.00877" lon="7.49768">
        <ele>242.39</ele>
        <time>2021-07-21T13:53:28Z</time>
      </trkpt>
      <trkpt lat="49.00991" lon="7.4969">
        <ele>243.35</ele>
        <time>2021-07-21T13:53:35Z</time>
      </trkpt>
      <trkpt lat="49.01005" lon="7.49688">
        <ele>243.35</ele>
        <time>2021-07-21T13:53:36Z</time>
      </trkpt>
      <trkpt lat="49.0102" lon="7.49687">
        <ele>242.87</ele>
        <time>2021-07-21T13:53:37Z</time>
      </trkpt>
      <trkpt lat="49.01034" lon="7.49689">
        <ele>242.87</ele>
        <time>2021-07-21T13:53:38Z</time>
      </trkpt>
      <trkpt lat="49.01048" lon="7.49695">
        <ele>242.87</ele>
        <time>2021-07-21T13:53:39Z</time>
      </trkpt>
      <trkpt lat="49.01061" lon="7.49705">
        <ele>242.39</ele>
        <time>2021-07-21T13:53:40Z</time>
      </trkpt>
      <trkpt lat="49.01074" lon="7.49716">
        <ele>242.39</ele>
        <time>2021-07-21T13:53:41Z</time>
      </trkpt>
      <trkpt lat="49.01111" lon="7.49752">
        <ele>240.95</ele>
        <time>2021-07-21T13:53:44Z</time>
      </trkpt>
      <trkpt lat="49.01124" lon="7.49763">
        <ele>240.47</ele>
        <time>2021-07-21T13:53:45Z</time>
      </trkpt>
      <trkpt lat="49.01151" lon="7.49777">
        <ele>239.51</ele>
        <time>2021-07-21T13:53:46Z</time>
      </trkpt>
      <trkpt lat="49.01151" lon="7.49777">
        <ele>239.99</ele>
        <time>2021-07-21T13:53:47Z</time>
      </trkpt>
      <trkpt lat="49.01165" lon="7.49778">
        <ele>238.54</ele>
        <time>2021-07-21T13:53:48Z</time>
      </trkpt>
      <trkpt lat="49.01179" lon="7.49779">
        <ele>238.54</ele>
        <time>2021-07-21T13:53:49Z</time>
      </trkpt>
      <trkpt lat="49.01192" lon="7.4978">
        <ele>239.02</ele>
        <time>2021-07-21T13:53:50Z</time>
      </trkpt>
      <trkpt lat="49.01206" lon="7.49774">
        <ele>238.54</ele>
        <time>2021-07-21T13:53:51Z</time>
      </trkpt>
      <trkpt lat="49.01219" lon="7.49768">
        <ele>239.02</ele>
        <time>2021-07-21T13:53:52Z</time>
      </trkpt>
      <trkpt lat="49.01246" lon="7.4975">
        <ele>238.54</ele>
        <time>2021-07-21T13:53:53Z</time>
      </trkpt>
      <trkpt lat="49.01246" lon="7.4975">
        <ele>239.51</ele>
        <time>2021-07-21T13:53:54Z</time>
      </trkpt>
      <trkpt lat="49.01257" lon="7.49736">
        <ele>239.51</ele>
        <time>2021-07-21T13:53:55Z</time>
      </trkpt>
      <trkpt lat="49.01269" lon="7.49719">
        <ele>239.99</ele>
        <time>2021-07-21T13:53:56Z</time>
      </trkpt>
      <trkpt lat="49.0128" lon="7.49703">
        <ele>240.47</ele>
        <time>2021-07-21T13:53:57Z</time>
      </trkpt>
      <trkpt lat="49.01331" lon="7.49606">
        <ele>240.95</ele>
        <time>2021-07-21T13:54:02Z</time>
      </trkpt>
      <trkpt lat="49.01453" lon="7.49482">
        <ele>241.43</ele>
        <time>2021-07-21T13:54:10Z</time>
      </trkpt>
      <trkpt lat="49.01552" lon="7.49419">
        <ele>242.87</ele>
        <time>2021-07-21T13:54:16Z</time>
      </trkpt>
      <trkpt lat="49.01671" lon="7.49289">
        <ele>248.16</ele>
        <time>2021-07-21T13:54:26Z</time>
      </trkpt>
      <trkpt lat="49.01745" lon="7.49222">
        <ele>249.12</ele>
        <time>2021-07-21T13:54:31Z</time>
      </trkpt>
      <trkpt lat="49.01758" lon="7.49215">
        <ele>249.12</ele>
        <time>2021-07-21T13:54:32Z</time>
      </trkpt>
      <trkpt lat="49.01939" lon="7.49127">
        <ele>252.48</ele>
        <time>2021-07-21T13:54:46Z</time>
      </trkpt>
      <trkpt lat="49.02061" lon="7.49107">
        <ele>254.89</ele>
        <time>2021-07-21T13:54:54Z</time>
      </trkpt>
      <trkpt lat="49.02157" lon="7.49102">
        <ele>260.17</ele>
        <time>2021-07-21T13:55:01Z</time>
      </trkpt>
      <trkpt lat="49.02167" lon="7.49097">
        <ele>259.69</ele>
        <time>2021-07-21T13:55:02Z</time>
      </trkpt>
      <trkpt lat="49.02176" lon="7.4909">
        <ele>260.17</ele>
        <time>2021-07-21T13:55:03Z</time>
      </trkpt>
      <trkpt lat="49.02186" lon="7.49079">
        <ele>260.65</ele>
        <time>2021-07-21T13:55:04Z</time>
      </trkpt>
      <trkpt lat="49.02195" lon="7.49068">
        <ele>260.65</ele>
        <time>2021-07-21T13:55:05Z</time>
      </trkpt>
      <trkpt lat="49.02203" lon="7.49054">
        <ele>260.17</ele>
        <time>2021-07-21T13:55:06Z</time>
      </trkpt>
      <trkpt lat="49.0221" lon="7.4904">
        <ele>259.69</ele>
        <time>2021-07-21T13:55:07Z</time>
      </trkpt>
      <trkpt lat="49.02219" lon="7.49023">
        <ele>259.21</ele>
        <time>2021-07-21T13:55:08Z</time>
      </trkpt>
      <trkpt lat="49.023" lon="7.48786">
        <ele>252.96</ele>
        <time>2021-07-21T13:55:19Z</time>
      </trkpt>
      <trkpt lat="49.02349" lon="7.48633">
        <ele>252.48</ele>
        <time>2021-07-21T13:55:27Z</time>
      </trkpt>
      <trkpt lat="49.02375" lon="7.48522">
        <ele>252.96</ele>
        <time>2021-07-21T13:55:34Z</time>
      </trkpt>
      <trkpt lat="49.02376" lon="7.48506">
        <ele>252.96</ele>
        <time>2021-07-21T13:55:35Z</time>
      </trkpt>
      <trkpt lat="49.02377" lon="7.48489">
        <ele>252.48</ele>
        <time>2021-07-21T13:55:36Z</time>
      </trkpt>
      <trkpt lat="49.02377" lon="7.48456">
        <ele>251.52</ele>
        <time>2021-07-21T13:55:37Z</time>
      </trkpt>
      <trkpt lat="49.02377" lon="7.48456">
        <ele>251.52</ele>
        <time>2021-07-21T13:55:38Z</time>
      </trkpt>
      <trkpt lat="49.02378" lon="7.48444">
        <ele>251.04</ele>
        <time>2021-07-21T13:55:39Z</time>
      </trkpt>
      <trkpt lat="49.02378" lon="7.48434">
        <ele>251.04</ele>
        <time>2021-07-21T13:55:40Z</time>
      </trkpt>
      <trkpt lat="49.02379" lon="7.48404">
        <ele>251.04</ele>
        <time>2021-07-21T13:55:43Z</time>
      </trkpt>
      <trkpt lat="49.0238" lon="7.48396">
        <ele>251.04</ele>
        <time>2021-07-21T13:55:44Z</time>
      </trkpt>
      <trkpt lat="49.02382" lon="7.48389">
        <ele>250.56</ele>
        <time>2021-07-21T13:55:45Z</time>
      </trkpt>
      <trkpt lat="49.02385" lon="7.48371">
        <ele>254.89</ele>
        <time>2021-07-21T13:55:56Z</time>
      </trkpt>
      <trkpt lat="49.02395" lon="7.48354">
        <ele>254.89</ele>
        <time>2021-07-21T13:56:37Z</time>
      </trkpt>
      <trkpt lat="49.02398" lon="7.4835">
        <ele>254.89</ele>
        <time>2021-07-21T13:56:38Z</time>
      </trkpt>
      <trkpt lat="49.02402" lon="7.48345">
        <ele>254.89</ele>
        <time>2021-07-21T13:56:39Z</time>
      </trkpt>
      <trkpt lat="49.02408" lon="7.48341">
        <ele>254.89</ele>
        <time>2021-07-21T13:56:40Z</time>
      </trkpt>
      <trkpt lat="49.02414" lon="7.48335">
        <ele>254.89</ele>
        <time>2021-07-21T13:56:41Z</time>
      </trkpt>
      <trkpt lat="49.02525" lon="7.48274">
        <ele>254.89</ele>
        <time>2021-07-21T13:56:52Z</time>
      </trkpt>
      <trkpt lat="49.02578" lon="7.48271">
        <ele>254.41</ele>
        <time>2021-07-21T13:56:56Z</time>
      </trkpt>
      <trkpt lat="49.02591" lon="7.4827">
        <ele>254.41</ele>
        <time>2021-07-21T13:56:57Z</time>
      </trkpt>
      <trkpt lat="49.02604" lon="7.48267">
        <ele>254.41</ele>
        <time>2021-07-21T13:56:58Z</time>
      </trkpt>
      <trkpt lat="49.02617" lon="7.4826">
        <ele>254.41</ele>
        <time>2021-07-21T13:56:59Z</time>
      </trkpt>
      <trkpt lat="49.02626" lon="7.48249">
        <ele>253.93</ele>
        <time>2021-07-21T13:57:00Z</time>
      </trkpt>
      <trkpt lat="49.02635" lon="7.48234">
        <ele>253.44</ele>
        <time>2021-07-21T13:57:01Z</time>
      </trkpt>
      <trkpt lat="49.02641" lon="7.48221">
        <ele>252.48</ele>
        <time>2021-07-21T13:57:02Z</time>
      </trkpt>
      <trkpt lat="49.02644" lon="7.48201">
        <ele>251.52</ele>
        <time>2021-07-21T13:57:03Z</time>
      </trkpt>
      <trkpt lat="49.02647" lon="7.48183">
        <ele>252.48</ele>
        <time>2021-07-21T13:57:04Z</time>
      </trkpt>
      <trkpt lat="49.02646" lon="7.48158">
        <ele>252</ele>
        <time>2021-07-21T13:57:05Z</time>
      </trkpt>
      <trkpt lat="49.02644" lon="7.48136">
        <ele>252.48</ele>
        <time>2021-07-21T13:57:06Z</time>
      </trkpt>
      <trkpt lat="49.02639" lon="7.48113">
        <ele>253.44</ele>
        <time>2021-07-21T13:57:07Z</time>
      </trkpt>
      <trkpt lat="49.02612" lon="7.47963">
        <ele>255.37</ele>
        <time>2021-07-21T13:57:14Z</time>
      </trkpt>
      <trkpt lat="49.02611" lon="7.47942">
        <ele>254.89</ele>
        <time>2021-07-21T13:57:15Z</time>
      </trkpt>
      <trkpt lat="49.02611" lon="7.4792">
        <ele>254.41</ele>
        <time>2021-07-21T13:57:16Z</time>
      </trkpt>
      <trkpt lat="49.02617" lon="7.47812">
        <ele>252.48</ele>
        <time>2021-07-21T13:57:21Z</time>
      </trkpt>
      <trkpt lat="49.02621" lon="7.47792">
        <ele>253.93</ele>
        <time>2021-07-21T13:57:22Z</time>
      </trkpt>
      <trkpt lat="49.02625" lon="7.47772">
        <ele>254.89</ele>
        <time>2021-07-21T13:57:23Z</time>
      </trkpt>
      <trkpt lat="49.02632" lon="7.47759">
        <ele>254.89</ele>
        <time>2021-07-21T13:57:24Z</time>
      </trkpt>
      <trkpt lat="49.02641" lon="7.47744">
        <ele>254.89</ele>
        <time>2021-07-21T13:57:25Z</time>
      </trkpt>
      <trkpt lat="49.02699" lon="7.47655">
        <ele>257.77</ele>
        <time>2021-07-21T13:57:31Z</time>
      </trkpt>
      <trkpt lat="49.02709" lon="7.47641">
        <ele>258.73</ele>
        <time>2021-07-21T13:57:32Z</time>
      </trkpt>
      <trkpt lat="49.0272" lon="7.4763">
        <ele>258.73</ele>
        <time>2021-07-21T13:57:33Z</time>
      </trkpt>
      <trkpt lat="49.02735" lon="7.47622">
        <ele>258.73</ele>
        <time>2021-07-21T13:57:34Z</time>
      </trkpt>
      <trkpt lat="49.02748" lon="7.47616">
        <ele>258.73</ele>
        <time>2021-07-21T13:57:35Z</time>
      </trkpt>
      <trkpt lat="49.0291" lon="7.47522">
        <ele>264.5</ele>
        <time>2021-07-21T13:57:47Z</time>
      </trkpt>
      <trkpt lat="49.02994" lon="7.47433">
        <ele>269.79</ele>
        <time>2021-07-21T13:57:54Z</time>
      </trkpt>
      <trkpt lat="49.03007" lon="7.47425">
        <ele>271.23</ele>
        <time>2021-07-21T13:57:55Z</time>
      </trkpt>
      <trkpt lat="49.03019" lon="7.47417">
        <ele>272.67</ele>
        <time>2021-07-21T13:57:56Z</time>
      </trkpt>
      <trkpt lat="49.03033" lon="7.47412">
        <ele>274.11</ele>
        <time>2021-07-21T13:57:57Z</time>
      </trkpt>
      <trkpt lat="49.03047" lon="7.47413">
        <ele>275.56</ele>
        <time>2021-07-21T13:57:58Z</time>
      </trkpt>
      <trkpt lat="49.03061" lon="7.47417">
        <ele>276.52</ele>
        <time>2021-07-21T13:57:59Z</time>
      </trkpt>
      <trkpt lat="49.03074" lon="7.47424">
        <ele>277.48</ele>
        <time>2021-07-21T13:58:00Z</time>
      </trkpt>
      <trkpt lat="49.03086" lon="7.47436">
        <ele>278.44</ele>
        <time>2021-07-21T13:58:01Z</time>
      </trkpt>
      <trkpt lat="49.03097" lon="7.47448">
        <ele>279.88</ele>
        <time>2021-07-21T13:58:02Z</time>
      </trkpt>
      <trkpt lat="49.03108" lon="7.47461">
        <ele>280.84</ele>
        <time>2021-07-21T13:58:03Z</time>
      </trkpt>
      <trkpt lat="49.03119" lon="7.47476">
        <ele>282.28</ele>
        <time>2021-07-21T13:58:04Z</time>
      </trkpt>
      <trkpt lat="49.03261" lon="7.47685">
        <ele>300.07</ele>
        <time>2021-07-21T13:58:17Z</time>
      </trkpt>
      <trkpt lat="49.03271" lon="7.47698">
        <ele>300.55</ele>
        <time>2021-07-21T13:58:18Z</time>
      </trkpt>
      <trkpt lat="49.03283" lon="7.47705">
        <ele>301.51</ele>
        <time>2021-07-21T13:58:19Z</time>
      </trkpt>
      <trkpt lat="49.03294" lon="7.4771">
        <ele>301.51</ele>
        <time>2021-07-21T13:58:20Z</time>
      </trkpt>
      <trkpt lat="49.03308" lon="7.47708">
        <ele>302.47</ele>
        <time>2021-07-21T13:58:21Z</time>
      </trkpt>
      <trkpt lat="49.03317" lon="7.47703">
        <ele>302.95</ele>
        <time>2021-07-21T13:58:22Z</time>
      </trkpt>
      <trkpt lat="49.03331" lon="7.47693">
        <ele>304.39</ele>
        <time>2021-07-21T13:58:23Z</time>
      </trkpt>
      <trkpt lat="49.03339" lon="7.47681">
        <ele>305.36</ele>
        <time>2021-07-21T13:58:24Z</time>
      </trkpt>
      <trkpt lat="49.03348" lon="7.47665">
        <ele>306.32</ele>
        <time>2021-07-21T13:58:25Z</time>
      </trkpt>
      <trkpt lat="49.03357" lon="7.4765">
        <ele>307.28</ele>
        <time>2021-07-21T13:58:26Z</time>
      </trkpt>
      <trkpt lat="49.03392" lon="7.47582">
        <ele>312.09</ele>
        <time>2021-07-21T13:58:30Z</time>
      </trkpt>
      <trkpt lat="49.03404" lon="7.47569">
        <ele>313.05</ele>
        <time>2021-07-21T13:58:31Z</time>
      </trkpt>
      <trkpt lat="49.03417" lon="7.47558">
        <ele>314.49</ele>
        <time>2021-07-21T13:58:32Z</time>
      </trkpt>
      <trkpt lat="49.03431" lon="7.47553">
        <ele>315.93</ele>
        <time>2021-07-21T13:58:33Z</time>
      </trkpt>
      <trkpt lat="49.03445" lon="7.47549">
        <ele>316.89</ele>
        <time>2021-07-21T13:58:34Z</time>
      </trkpt>
      <trkpt lat="49.0346" lon="7.47551">
        <ele>317.85</ele>
        <time>2021-07-21T13:58:35Z</time>
      </trkpt>
      <trkpt lat="49.03473" lon="7.47556">
        <ele>318.81</ele>
        <time>2021-07-21T13:58:36Z</time>
      </trkpt>
      <trkpt lat="49.03487" lon="7.47563">
        <ele>319.78</ele>
        <time>2021-07-21T13:58:37Z</time>
      </trkpt>
      <trkpt lat="49.03498" lon="7.47576">
        <ele>320.74</ele>
        <time>2021-07-21T13:58:38Z</time>
      </trkpt>
      <trkpt lat="49.03511" lon="7.47593">
        <ele>322.18</ele>
        <time>2021-07-21T13:58:39Z</time>
      </trkpt>
      <trkpt lat="49.03558" lon="7.47661">
        <ele>326.99</ele>
        <time>2021-07-21T13:58:43Z</time>
      </trkpt>
      <trkpt lat="49.0357" lon="7.47671">
        <ele>327.95</ele>
        <time>2021-07-21T13:58:44Z</time>
      </trkpt>
      <trkpt lat="49.03595" lon="7.47688">
        <ele>328.43</ele>
        <time>2021-07-21T13:58:45Z</time>
      </trkpt>
      <trkpt lat="49.03609" lon="7.47688">
        <ele>329.39</ele>
        <time>2021-07-21T13:58:46Z</time>
      </trkpt>
      <trkpt lat="49.03609" lon="7.47688">
        <ele>330.83</ele>
        <time>2021-07-21T13:58:47Z</time>
      </trkpt>
      <trkpt lat="49.03623" lon="7.47688">
        <ele>331.31</ele>
        <time>2021-07-21T13:58:48Z</time>
      </trkpt>
      <trkpt lat="49.03636" lon="7.47686">
        <ele>332.27</ele>
        <time>2021-07-21T13:58:49Z</time>
      </trkpt>
      <trkpt lat="49.03651" lon="7.47681">
        <ele>333.23</ele>
        <time>2021-07-21T13:58:50Z</time>
      </trkpt>
      <trkpt lat="49.03852" lon="7.47588">
        <ele>336.6</ele>
        <time>2021-07-21T13:59:03Z</time>
      </trkpt>
      <trkpt lat="49.04025" lon="7.47498">
        <ele>333.71</ele>
        <time>2021-07-21T13:59:13Z</time>
      </trkpt>
      <trkpt lat="49.04042" lon="7.47485">
        <ele>333.71</ele>
        <time>2021-07-21T13:59:14Z</time>
      </trkpt>
      <trkpt lat="49.04058" lon="7.47467">
        <ele>333.23</ele>
        <time>2021-07-21T13:59:15Z</time>
      </trkpt>
      <trkpt lat="49.04073" lon="7.47448">
        <ele>332.75</ele>
        <time>2021-07-21T13:59:16Z</time>
      </trkpt>
      <trkpt lat="49.04104" lon="7.47408">
        <ele>332.27</ele>
        <time>2021-07-21T13:59:17Z</time>
      </trkpt>
      <trkpt lat="49.04104" lon="7.47408">
        <ele>331.79</ele>
        <time>2021-07-21T13:59:18Z</time>
      </trkpt>
      <trkpt lat="49.04117" lon="7.47384">
        <ele>331.31</ele>
        <time>2021-07-21T13:59:19Z</time>
      </trkpt>
      <trkpt lat="49.04131" lon="7.4736">
        <ele>330.35</ele>
        <time>2021-07-21T13:59:20Z</time>
      </trkpt>
      <trkpt lat="49.04155" lon="7.47305">
        <ele>329.39</ele>
        <time>2021-07-21T13:59:21Z</time>
      </trkpt>
      <trkpt lat="49.04301" lon="7.46951">
        <ele>319.3</ele>
        <time>2021-07-21T13:59:34Z</time>
      </trkpt>
      <trkpt lat="49.04434" lon="7.46586">
        <ele>311.6</ele>
        <time>2021-07-21T13:59:46Z</time>
      </trkpt>
      <trkpt lat="49.04547" lon="7.46162">
        <ele>301.51</ele>
        <time>2021-07-21T14:00:01Z</time>
      </trkpt>
      <trkpt lat="49.04628" lon="7.45833">
        <ele>295.26</ele>
        <time>2021-07-21T14:00:13Z</time>
      </trkpt>
      <trkpt lat="49.04654" lon="7.45593">
        <ele>295.74</ele>
        <time>2021-07-21T14:00:22Z</time>
      </trkpt>
      <trkpt lat="49.04676" lon="7.45326">
        <ele>294.78</ele>
        <time>2021-07-21T14:00:35Z</time>
      </trkpt>
      <trkpt lat="49.04683" lon="7.45243">
        <ele>294.78</ele>
        <time>2021-07-21T14:00:43Z</time>
      </trkpt>
      <trkpt lat="49.04699" lon="7.4507">
        <ele>293.34</ele>
        <time>2021-07-21T14:00:53Z</time>
      </trkpt>
      <trkpt lat="49.04713" lon="7.44842">
        <ele>292.86</ele>
        <time>2021-07-21T14:01:04Z</time>
      </trkpt>
      <trkpt lat="49.0471" lon="7.44737">
        <ele>292.38</ele>
        <time>2021-07-21T14:01:12Z</time>
      </trkpt>
      <trkpt lat="49.04709" lon="7.44709">
        <ele>292.38</ele>
        <time>2021-07-21T14:01:19Z</time>
      </trkpt>
      <trkpt lat="49.04737" lon="7.44628">
        <ele>293.82</ele>
        <time>2021-07-21T14:01:26Z</time>
      </trkpt>
      <trkpt lat="49.04737" lon="7.44628">
        <ele>293.82</ele>
        <time>2021-07-21T14:01:27Z</time>
      </trkpt>
      <trkpt lat="49.04785" lon="7.44433">
        <ele>294.78</ele>
        <time>2021-07-21T14:01:38Z</time>
      </trkpt>
      <trkpt lat="49.0481" lon="7.44258">
        <ele>298.15</ele>
        <time>2021-07-21T14:01:48Z</time>
      </trkpt>
      <trkpt lat="49.04796" lon="7.44083">
        <ele>302.95</ele>
        <time>2021-07-21T14:01:59Z</time>
      </trkpt>
      <trkpt lat="49.04757" lon="7.43779">
        <ele>309.2</ele>
        <time>2021-07-21T14:02:16Z</time>
      </trkpt>
      <trkpt lat="49.04737" lon="7.43472">
        <ele>313.05</ele>
        <time>2021-07-21T14:02:32Z</time>
      </trkpt>
      <trkpt lat="49.04734" lon="7.43385">
        <ele>312.09</ele>
        <time>2021-07-21T14:02:38Z</time>
      </trkpt>
      <trkpt lat="49.04736" lon="7.43369">
        <ele>311.12</ele>
        <time>2021-07-21T14:02:39Z</time>
      </trkpt>
      <trkpt lat="49.04739" lon="7.43354">
        <ele>310.64</ele>
        <time>2021-07-21T14:02:40Z</time>
      </trkpt>
      <trkpt lat="49.04743" lon="7.43339">
        <ele>309.68</ele>
        <time>2021-07-21T14:02:41Z</time>
      </trkpt>
      <trkpt lat="49.04749" lon="7.43327">
        <ele>308.72</ele>
        <time>2021-07-21T14:02:42Z</time>
      </trkpt>
      <trkpt lat="49.04756" lon="7.43315">
        <ele>307.76</ele>
        <time>2021-07-21T14:02:43Z</time>
      </trkpt>
      <trkpt lat="49.04761" lon="7.43305">
        <ele>307.76</ele>
        <time>2021-07-21T14:02:44Z</time>
      </trkpt>
      <trkpt lat="49.04794" lon="7.43241">
        <ele>307.28</ele>
        <time>2021-07-21T14:02:52Z</time>
      </trkpt>
      <trkpt lat="49.04847" lon="7.43146">
        <ele>305.36</ele>
        <time>2021-07-21T14:03:04Z</time>
      </trkpt>
      <trkpt lat="49.04924" lon="7.4301">
        <ele>299.59</ele>
        <time>2021-07-21T14:03:18Z</time>
      </trkpt>
      <trkpt lat="49.04952" lon="7.4296">
        <ele>297.18</ele>
        <time>2021-07-21T14:03:25Z</time>
      </trkpt>
      <trkpt lat="49.04955" lon="7.42954">
        <ele>297.18</ele>
        <time>2021-07-21T14:03:26Z</time>
      </trkpt>
      <trkpt lat="49.04957" lon="7.42949">
        <ele>297.18</ele>
        <time>2021-07-21T14:03:27Z</time>
      </trkpt>
      <trkpt lat="49.04959" lon="7.42946">
        <ele>297.18</ele>
        <time>2021-07-21T14:03:28Z</time>
      </trkpt>
      <trkpt lat="49.04968" lon="7.42944">
        <ele>297.18</ele>
        <time>2021-07-21T14:03:29Z</time>
      </trkpt>
      <trkpt lat="49.0497" lon="7.42946">
        <ele>297.18</ele>
        <time>2021-07-21T14:03:30Z</time>
      </trkpt>
      <trkpt lat="49.04975" lon="7.4295">
        <ele>297.18</ele>
        <time>2021-07-21T14:03:31Z</time>
      </trkpt>
      <trkpt lat="49.05023" lon="7.42927">
        <ele>299.59</ele>
        <time>2021-07-21T14:03:40Z</time>
      </trkpt>
      <trkpt lat="49.05027" lon="7.42925">
        <ele>299.59</ele>
        <time>2021-07-21T14:03:41Z</time>
      </trkpt>
      <trkpt lat="49.05027" lon="7.42925">
        <ele>300.07</ele>
        <time>2021-07-21T14:03:42Z</time>
      </trkpt>
      <trkpt lat="49.0503" lon="7.4293">
        <ele>299.59</ele>
        <time>2021-07-21T14:03:43Z</time>
      </trkpt>
      <trkpt lat="49.05037" lon="7.42943">
        <ele>300.07</ele>
        <time>2021-07-21T14:03:44Z</time>
      </trkpt>
      <trkpt lat="49.05041" lon="7.4295">
        <ele>299.59</ele>
        <time>2021-07-21T14:03:45Z</time>
      </trkpt>
      <trkpt lat="49.0509" lon="7.43055">
        <ele>302.95</ele>
        <time>2021-07-21T14:03:56Z</time>
      </trkpt>
      <trkpt lat="49.05154" lon="7.43193">
        <ele>305.36</ele>
        <time>2021-07-21T14:04:09Z</time>
      </trkpt>
      <trkpt lat="49.05207" lon="7.43314">
        <ele>306.8</ele>
        <time>2021-07-21T14:04:20Z</time>
      </trkpt>
      <trkpt lat="49.05218" lon="7.4335">
        <ele>307.28</ele>
        <time>2021-07-21T14:04:28Z</time>
      </trkpt>
      <trkpt lat="49.0522" lon="7.43351">
        <ele>307.28</ele>
        <time>2021-07-21T14:04:29Z</time>
      </trkpt>
      <trkpt lat="49.05224" lon="7.43352">
        <ele>307.28</ele>
        <time>2021-07-21T14:04:30Z</time>
      </trkpt>
      <trkpt lat="49.05235" lon="7.43343">
        <ele>307.76</ele>
        <time>2021-07-21T14:04:33Z</time>
      </trkpt>
      <trkpt lat="49.05239" lon="7.43345">
        <ele>307.28</ele>
        <time>2021-07-21T14:04:34Z</time>
      </trkpt>
      <trkpt lat="49.05243" lon="7.43347">
        <ele>307.28</ele>
        <time>2021-07-21T14:04:35Z</time>
      </trkpt>
      <trkpt lat="49.05246" lon="7.43351">
        <ele>307.28</ele>
        <time>2021-07-21T14:04:36Z</time>
      </trkpt>
      <trkpt lat="49.05249" lon="7.43355">
        <ele>307.28</ele>
        <time>2021-07-21T14:04:37Z</time>
      </trkpt>
      <trkpt lat="49.05291" lon="7.43406">
        <ele>308.72</ele>
        <time>2021-07-21T14:04:48Z</time>
      </trkpt>
      <trkpt lat="49.05324" lon="7.43447">
        <ele>310.64</ele>
        <time>2021-07-21T14:04:54Z</time>
      </trkpt>
      <trkpt lat="49.0533" lon="7.43451">
        <ele>311.12</ele>
        <time>2021-07-21T14:04:55Z</time>
      </trkpt>
      <trkpt lat="49.05341" lon="7.43459">
        <ele>311.6</ele>
        <time>2021-07-21T14:04:56Z</time>
      </trkpt>
      <trkpt lat="49.05347" lon="7.4346">
        <ele>312.57</ele>
        <time>2021-07-21T14:04:58Z</time>
      </trkpt>
      <trkpt lat="49.05361" lon="7.4346">
        <ele>313.05</ele>
        <time>2021-07-21T14:04:59Z</time>
      </trkpt>
      <trkpt lat="49.05361" lon="7.4346">
        <ele>313.05</ele>
        <time>2021-07-21T14:05:00Z</time>
      </trkpt>
      <trkpt lat="49.05373" lon="7.43454">
        <ele>313.53</ele>
        <time>2021-07-21T14:05:01Z</time>
      </trkpt>
      <trkpt lat="49.05373" lon="7.43454">
        <ele>314.01</ele>
        <time>2021-07-21T14:05:02Z</time>
      </trkpt>
      <trkpt lat="49.05387" lon="7.43447">
        <ele>314.49</ele>
        <time>2021-07-21T14:05:03Z</time>
      </trkpt>
      <trkpt lat="49.05405" lon="7.4343">
        <ele>316.89</ele>
        <time>2021-07-21T14:05:07Z</time>
      </trkpt>
      <trkpt lat="49.0545" lon="7.43366">
        <ele>321.22</ele>
        <time>2021-07-21T14:05:17Z</time>
      </trkpt>
      <trkpt lat="49.05454" lon="7.43358">
        <ele>322.18</ele>
        <time>2021-07-21T14:05:28Z</time>
      </trkpt>
      <trkpt lat="49.05454" lon="7.43358">
        <ele>322.18</ele>
        <time>2021-07-21T14:05:33Z</time>
      </trkpt>
      <trkpt lat="49.05454" lon="7.43358">
        <ele>322.18</ele>
        <time>2021-07-21T14:05:34Z</time>
      </trkpt>
      <trkpt lat="49.05454" lon="7.43358">
        <ele>322.18</ele>
        <time>2021-07-21T14:05:35Z</time>
      </trkpt>
      <trkpt lat="49.05467" lon="7.4338">
        <ele>321.7</ele>
        <time>2021-07-21T14:05:42Z</time>
      </trkpt>
      <trkpt lat="49.05466" lon="7.43385">
        <ele>322.18</ele>
        <time>2021-07-21T14:05:57Z</time>
      </trkpt>
      <trkpt lat="49.05463" lon="7.4339">
        <ele>322.18</ele>
        <time>2021-07-21T14:06:27Z</time>
      </trkpt>
      <trkpt lat="49.05463" lon="7.43409">
        <ele>322.18</ele>
        <time>2021-07-21T14:06:38Z</time>
      </trkpt>
      <trkpt lat="49.05465" lon="7.43414">
        <ele>322.18</ele>
        <time>2021-07-21T14:06:45Z</time>
      </trkpt>
      <trkpt lat="49.05463" lon="7.4341">
        <ele>322.18</ele>
        <time>2021-07-21T14:06:51Z</time>
      </trkpt>
      <trkpt lat="49.0546" lon="7.43417">
        <ele>321.7</ele>
        <time>2021-07-21T14:06:55Z</time>
      </trkpt>
      <trkpt lat="49.05434" lon="7.4345">
        <ele>321.7</ele>
        <time>2021-07-21T14:07:11Z</time>
      </trkpt>
      <trkpt lat="49.05414" lon="7.43457">
        <ele>320.74</ele>
        <time>2021-07-21T14:07:23Z</time>
      </trkpt>
      <trkpt lat="49.05413" lon="7.43452">
        <ele>320.26</ele>
        <time>2021-07-21T14:07:43Z</time>
      </trkpt>
      <trkpt lat="49.05413" lon="7.43452">
        <ele>320.74</ele>
        <time>2021-07-21T14:09:33Z</time>
      </trkpt>
      <trkpt lat="49.05413" lon="7.4345">
        <ele>320.74</ele>
        <time>2021-07-21T14:12:40Z</time>
      </trkpt>
      <trkpt lat="49.05412" lon="7.4345">
        <ele>321.22</ele>
        <time>2021-07-21T14:13:48Z</time>
      </trkpt>
      <trkpt lat="49.05412" lon="7.43449">
        <ele>321.22</ele>
        <time>2021-07-21T14:14:59Z</time>
      </trkpt>
      <trkpt lat="49.05411" lon="7.43449">
        <ele>321.22</ele>
        <time>2021-07-21T14:18:40Z</time>
      </trkpt>
      <trkpt lat="49.05412" lon="7.43452">
        <ele>321.7</ele>
        <time>2021-07-21T14:21:44Z</time>
      </trkpt>
      <trkpt lat="49.05416" lon="7.43459">
        <ele>321.7</ele>
        <time>2021-07-21T14:22:02Z</time>
      </trkpt>
      <trkpt lat="49.0542" lon="7.43462">
        <ele>321.7</ele>
        <time>2021-07-21T14:22:32Z</time>
      </trkpt>
      <trkpt lat="49.05424" lon="7.43458">
        <ele>321.7</ele>
        <time>2021-07-21T14:22:53Z</time>
      </trkpt>
      <trkpt lat="49.05424" lon="7.43458">
        <ele>322.18</ele>
        <time>2021-07-21T14:23:00Z</time>
      </trkpt>
      <trkpt lat="49.05421" lon="7.43467">
        <ele>322.18</ele>
        <time>2021-07-21T14:23:12Z</time>
      </trkpt>
      <trkpt lat="49.05421" lon="7.43456">
        <ele>323.14</ele>
        <time>2021-07-21T14:23:33Z</time>
      </trkpt>
      <trkpt lat="49.0542" lon="7.43455">
        <ele>323.14</ele>
        <time>2021-07-21T14:23:57Z</time>
      </trkpt>
      <trkpt lat="49.0542" lon="7.43453">
        <ele>323.62</ele>
        <time>2021-07-21T14:24:10Z</time>
      </trkpt>
      <trkpt lat="49.05419" lon="7.43449">
        <ele>324.1</ele>
        <time>2021-07-21T14:24:35Z</time>
      </trkpt>
      <trkpt lat="49.05419" lon="7.43449">
        <ele>324.1</ele>
        <time>2021-07-21T14:26:41Z</time>
      </trkpt>
      <trkpt lat="49.05419" lon="7.4345">
        <ele>324.1</ele>
        <time>2021-07-21T14:28:54Z</time>
      </trkpt>
      <trkpt lat="49.05419" lon="7.43449">
        <ele>323.62</ele>
        <time>2021-07-21T14:31:45Z</time>
      </trkpt>
      <trkpt lat="49.05419" lon="7.43448">
        <ele>324.1</ele>
        <time>2021-07-21T14:35:52Z</time>
      </trkpt>
      <trkpt lat="49.05419" lon="7.43449">
        <ele>324.58</ele>
        <time>2021-07-21T14:39:28Z</time>
      </trkpt>
      <trkpt lat="49.05419" lon="7.4345">
        <ele>325.54</ele>
        <time>2021-07-21T14:45:05Z</time>
      </trkpt>
      <trkpt lat="49.05418" lon="7.43449">
        <ele>325.54</ele>
        <time>2021-07-21T14:47:37Z</time>
      </trkpt>
      <trkpt lat="49.05418" lon="7.43449">
        <ele>326.02</ele>
        <time>2021-07-21T14:50:12Z</time>
      </trkpt>
      <trkpt lat="49.05418" lon="7.43448">
        <ele>326.02</ele>
        <time>2021-07-21T14:52:58Z</time>
      </trkpt>
      <trkpt lat="49.05418" lon="7.43448">
        <ele>326.02</ele>
        <time>2021-07-21T14:54:49Z</time>
      </trkpt>
      <trkpt lat="49.05418" lon="7.43448">
        <ele>326.02</ele>
        <time>2021-07-21T14:55:56Z</time>
      </trkpt>
      <trkpt lat="49.05419" lon="7.43448">
        <ele>326.02</ele>
        <time>2021-07-21T14:57:17Z</time>
      </trkpt>
      <trkpt lat="49.05418" lon="7.43448">
        <ele>325.54</ele>
        <time>2021-07-21T14:58:30Z</time>
      </trkpt>
      <trkpt lat="49.05418" lon="7.43447">
        <ele>325.54</ele>
        <time>2021-07-21T15:00:56Z</time>
      </trkpt>
      <trkpt lat="49.05419" lon="7.43447">
        <ele>325.54</ele>
        <time>2021-07-21T15:03:14Z</time>
      </trkpt>
      <trkpt lat="49.05419" lon="7.43447">
        <ele>325.54</ele>
        <time>2021-07-21T15:05:46Z</time>
      </trkpt>
      <trkpt lat="49.0542" lon="7.43448">
        <ele>325.54</ele>
        <time>2021-07-21T15:07:32Z</time>
      </trkpt>
      <trkpt lat="49.0542" lon="7.43448">
        <ele>325.54</ele>
        <time>2021-07-21T15:09:05Z</time>
      </trkpt>
      <trkpt lat="49.05423" lon="7.43446">
        <ele>325.54</ele>
        <time>2021-07-21T15:10:11Z</time>
      </trkpt>
      <trkpt lat="49.05423" lon="7.43446">
        <ele>325.06</ele>
        <time>2021-07-21T15:11:33Z</time>
      </trkpt>
      <trkpt lat="49.05423" lon="7.43445">
        <ele>325.06</ele>
        <time>2021-07-21T15:14:46Z</time>
      </trkpt>
      <trkpt lat="49.05422" lon="7.43446">
        <ele>325.06</ele>
        <time>2021-07-21T15:17:07Z</time>
      </trkpt>
      <trkpt lat="49.05422" lon="7.43446">
        <ele>324.58</ele>
        <time>2021-07-21T15:18:52Z</time>
      </trkpt>
      <trkpt lat="49.05422" lon="7.43447">
        <ele>324.58</ele>
        <time>2021-07-21T15:20:52Z</time>
      </trkpt>
      <trkpt lat="49.05422" lon="7.43448">
        <ele>324.58</ele>
        <time>2021-07-21T15:22:56Z</time>
      </trkpt>
      <trkpt lat="49.05422" lon="7.43448">
        <ele>324.58</ele>
        <time>2021-07-21T15:24:48Z</time>
      </trkpt>
      <trkpt lat="49.05422" lon="7.43448">
        <ele>324.58</ele>
        <time>2021-07-21T15:26:30Z</time>
      </trkpt>
      <trkpt lat="49.05421" lon="7.43448">
        <ele>325.06</ele>
        <time>2021-07-21T15:27:46Z</time>
      </trkpt>
    </trkseg>
  </trk>
</gpx>